Observation data for Palo Duro Canyon State Park Floor on 01/14/2018      Previous  Date  Next       Current Mesonet Observations  Soil Data  Daily Summary Page  Observations in Plain Language
KPD2 140600Z 10007KT 01/M13 A3035 RMK A01 T00121125  RH  035%=      5-min Rain = 0
KPD2 140601Z 10006KT 01/M13 A3035 RMK A01 T00141125  RH  035%=      5-min Rain = 0
KPD2 140602Z 10005KT 01/M13 A3034 RMK A01 T00141125  RH  035%=      5-min Rain = 0
KPD2 140603Z 09005KT 01/M13 A3034 RMK A01 T00141125  RH  035%=      5-min Rain = 0
KPD2 140604Z 10006KT 02/M13 A3034 RMK A01 T00151125  RH  035%=      5-min Rain = 0
KPD2 140605Z 10007KT 02/M13 A3034 RMK A01 T00151125  RH  034%=      5-min Rain = 0
KPD2 140606Z 10006KT 02/M13 A3034 RMK A01 T00161125  RH  034%=      5-min Rain = 0
KPD2 140607Z 10006KT 02/M13 A3034 RMK A01 T00161125  RH  034%=      5-min Rain = 0
KPD2 140608Z 10005KT 02/M12 A3034 RMK A01 T00161124  RH  034%=      5-min Rain = 0
KPD2 140609Z 10005KT 02/M13 A3034 RMK A01 T00161125  RH  034%=      5-min Rain = 0
KPD2 140610Z 10006KT 02/M13 A3034 RMK A01 T00161125  RH  034%=      5-min Rain = 0
KPD2 140611Z 11004KT 02/M13 A3034 RMK A01 T00161125  RH  034%=      5-min Rain = 0
KPD2 140612Z 10005KT 02/M13 A3034 RMK A01 T00161125  RH  034%=      5-min Rain = 0
KPD2 140613Z 10006KT 02/M13 A3034 RMK A01 T00161125  RH  034%=      5-min Rain = 0
KPD2 140614Z 10006KT 02/M12 A3034 RMK A01 T00161124  RH  034%=      5-min Rain = 0
KPD2 140615Z 10007KT 02/M12 A3034 RMK A01 T00161124  RH  034%=      5-min Rain = 0
KPD2 140616Z 10006KT 02/M12 A3034 RMK A01 T00161124  RH  034%=      5-min Rain = 0
KPD2 140617Z 10007KT 02/M12 A3034 RMK A01 T00161124  RH  034%=      5-min Rain = 0
KPD2 140618Z 10006KT 02/M12 A3034 RMK A01 T00161124  RH  034%=      5-min Rain = 0
KPD2 140619Z 11006KT 02/M12 A3034 RMK A01 T00161124  RH  034%=      5-min Rain = 0
KPD2 140620Z 10005KT 02/M12 A3034 RMK A01 T00161124  RH  034%=      5-min Rain = 0
KPD2 140621Z 09005KT 02/M12 A3034 RMK A01 T00161124  RH  035%=      5-min Rain = 0
KPD2 140622Z 10005KT 02/M12 A3034 RMK A01 T00161124  RH  035%=      5-min Rain = 0
KPD2 140623Z 08004KT 02/M12 A3034 RMK A01 T00161123  RH  035%=      5-min Rain = 0
KPD2 140624Z 09003KT 02/M12 A3034 RMK A01 T00161124  RH  035%=      5-min Rain = 0
KPD2 140625Z 09005KT 02/M12 A3034 RMK A01 T00161124  RH  035%=      5-min Rain = 0
KPD2 140626Z 10005KT 02/M12 A3034 RMK A01 T00161124  RH  035%=      5-min Rain = 0
KPD2 140627Z 10007KT 02/M12 A3034 RMK A01 T00161124  RH  035%=      5-min Rain = 0
KPD2 140628Z 10007KT 02/M12 A3034 RMK A01 T00161123  RH  035%=      5-min Rain = 0
KPD2 140629Z 11005KT 02/M12 A3035 RMK A01 T00171123  RH  035%=      5-min Rain = 0
KPD2 140630Z 15002KT 02/M12 A3035 RMK A01 T00171124  RH  034%=      5-min Rain = 0
KPD2 140631Z 14004KT 02/M13 A3035 RMK A01 T00151126  RH  034%=      5-min Rain = 0
KPD2 140632Z 13005KT 01/M13 A3034 RMK A01 T00121128  RH  035%=      5-min Rain = 0
KPD2 140633Z 14003KT 01/M13 A3034 RMK A01 T00101127  RH  035%=      5-min Rain = 0
KPD2 140634Z 14004KT 01/M13 A3034 RMK A01 T00081128  RH  035%=      5-min Rain = 0
KPD2 140635Z 15003KT 01/M13 A3034 RMK A01 T00061129  RH  036%=      5-min Rain = 0
KPD2 140636Z 15004KT 00/M13 A3034 RMK A01 T00031131  RH  036%=      5-min Rain = 0
KPD2 140637Z 14004KT M00/M13 A3034 RMK A01 T10011132  RH  037%=      5-min Rain = 0
KPD2 140638Z 14004KT M00/M13 A3035 RMK A01 T10031132  RH  037%=      5-min Rain = 0
KPD2 140639Z 13005KT M00/M13 A3035 RMK A01 T10041131  RH  038%=      5-min Rain = 0
KPD2 140640Z 13005KT M01/M13 A3035 RMK A01 T10051131  RH  038%=      5-min Rain = 0
KPD2 140641Z 12005KT M01/M13 A3035 RMK A01 T10051131  RH  038%=      5-min Rain = 0
KPD2 140642Z 13004KT M01/M13 A3035 RMK A01 T10051131  RH  038%=      5-min Rain = 0
KPD2 140643Z 12004KT M01/M13 A3035 RMK A01 T10061131  RH  038%=      5-min Rain = 0
KPD2 140644Z 12005KT M01/M13 A3035 RMK A01 T10061130  RH  038%=      5-min Rain = 0
KPD2 140645Z 12005KT M01/M13 A3035 RMK A01 T10061130  RH  039%=      5-min Rain = 0
KPD2 140646Z 11005KT M01/M13 A3035 RMK A01 T10051130  RH  038%=      5-min Rain = 0
KPD2 140647Z 12005KT M01/M13 A3035 RMK A01 T10051130  RH  038%=      5-min Rain = 0
KPD2 140648Z 11005KT M01/M13 A3035 RMK A01 T10051130  RH  038%=      5-min Rain = 0
KPD2 140649Z 11005KT M01/M13 A3035 RMK A01 T10051130  RH  038%=      5-min Rain = 0
KPD2 140650Z 11003KT M00/M13 A3035 RMK A01 T10041130  RH  038%=      5-min Rain = 0
KPD2 140651Z 12004KT M00/M13 A3035 RMK A01 T10031129  RH  038%=      5-min Rain = 0
KPD2 140652Z 11004KT M00/M13 A3035 RMK A01 T10021128  RH  038%=      5-min Rain = 0
KPD2 140653Z 11003KT M00/M13 A3035 RMK A01 T10021128  RH  038%=      5-min Rain = 0
KPD2 140654Z 12004KT M00/M13 A3035 RMK A01 T10011128  RH  038%=      5-min Rain = 0
KPD2 140655Z 10004KT 00/13 A3034 RMK A01 T00000-127  RH  038%=      5-min Rain = 0
KPD2 140656Z 14004KT 00/M13 A3034 RMK A01 T00011127  RH  038%=      5-min Rain = 0
KPD2 140657Z 13005KT 00/M13 A3034 RMK A01 T00031126  RH  037%=      5-min Rain = 0
KPD2 140658Z 12004KT 00/M13 A3034 RMK A01 T00021128  RH  037%=      5-min Rain = 0
KPD2 140659Z 13004KT 00/M13 A3034 RMK A01 T00021128  RH  037%=      5-min Rain = 0
KPD2 140700Z 13004KT 00/M13 A3034 RMK A01 T00011129  RH  037%=      5-min Rain = 0
KPD2 140701Z 11005KT 00/13 A3034 RMK A01 T00000-130  RH  037%=      5-min Rain = 0
KPD2 140702Z 10005KT M00/M13 A3034 RMK A01 T10011130  RH  037%=      5-min Rain = 0
KPD2 140703Z 10006KT M00/M13 A3034 RMK A01 T10011129  RH  038%=      5-min Rain = 0
KPD2 140704Z 11005KT 00/M13 A3034 RMK A01 T00021126  RH  038%=      5-min Rain = 0
KPD2 140705Z 10006KT 00/M13 A3034 RMK A01 T00041126  RH  037%=      5-min Rain = 0
KPD2 140706Z 10005KT 01/M13 A3034 RMK A01 T00061125  RH  037%=      5-min Rain = 0
KPD2 140707Z 10007KT 01/M13 A3034 RMK A01 T00081125  RH  036%=      5-min Rain = 0
KPD2 140708Z 10007KT 01/M13 A3034 RMK A01 T00091125  RH  036%=      5-min Rain = 0
KPD2 140709Z 10008KT 01/M13 A3033 RMK A01 T00101125  RH  036%=      5-min Rain = 0
KPD2 140710Z 10006KT 01/M13 A3033 RMK A01 T00111125  RH  035%=      5-min Rain = 0
KPD2 140711Z 10007KT 01/M13 A3033 RMK A01 T00121125  RH  035%=      5-min Rain = 0
KPD2 140712Z 11007KT 01/M13 A3033 RMK A01 T00121125  RH  035%=      5-min Rain = 0
KPD2 140713Z 10007KT 01/M13 A3033 RMK A01 T00131125  RH  035%=      5-min Rain = 0
KPD2 140714Z 11007KT 01/M13 A3033 RMK A01 T00121126  RH  035%=      5-min Rain = 0
KPD2 140715Z 09007KT 01/M13 A3033 RMK A01 T00121126  RH  035%=      5-min Rain = 0
KPD2 140716Z 10008KT 01/M13 A3033 RMK A01 T00121126  RH  035%=      5-min Rain = 0
KPD2 140717Z 11006KT 01/M13 A3033 RMK A01 T00121126  RH  035%=      5-min Rain = 0
KPD2 140718Z 10005KT 01/M13 A3034 RMK A01 T00121126  RH  035%=      5-min Rain = 0
KPD2 140719Z 11007KT 01/M13 A3034 RMK A01 T00111126  RH  035%=      5-min Rain = 0
KPD2 140720Z 11007KT 01/M13 A3034 RMK A01 T00111126  RH  035%=      5-min Rain = 0
KPD2 140721Z 11006KT 01/M13 A3034 RMK A01 T00101127  RH  035%=      5-min Rain = 0
KPD2 140722Z 11005KT 01/M13 A3034 RMK A01 T00101127  RH  035%=      5-min Rain = 0
KPD2 140723Z 10006KT 01/M13 A3034 RMK A01 T00091128  RH  035%=      5-min Rain = 0
KPD2 140724Z 11007KT 01/M13 A3034 RMK A01 T00081127  RH  035%=      5-min Rain = 0
KPD2 140725Z 11006KT 01/M13 A3034 RMK A01 T00081127  RH  036%=      5-min Rain = 0
KPD2 140726Z 12006KT 01/M13 A3034 RMK A01 T00081127  RH  036%=      5-min Rain = 0
KPD2 140727Z 12006KT 01/M13 A3034 RMK A01 T00071127  RH  036%=      5-min Rain = 0
KPD2 140728Z 12005KT 01/M13 A3034 RMK A01 T00061128  RH  036%=      5-min Rain = 0
KPD2 140729Z 11005KT 01/M13 A3034 RMK A01 T00061128  RH  036%=      5-min Rain = 0
KPD2 140730Z 11005KT 01/M13 A3034 RMK A01 T00051128  RH  036%=      5-min Rain = 0
KPD2 140731Z 11005KT 01/M13 A3034 RMK A01 T00051128  RH  036%=      5-min Rain = 0
KPD2 140732Z 12003KT 00/M13 A3034 RMK A01 T00041128  RH  036%=      5-min Rain = 0
KPD2 140733Z 13004KT 00/M13 A3034 RMK A01 T00041128  RH  036%=      5-min Rain = 0
KPD2 140734Z 13005KT 00/M13 A3034 RMK A01 T00031129  RH  036%=      5-min Rain = 0
KPD2 140735Z 12005KT 00/M13 A3034 RMK A01 T00021129  RH  037%=      5-min Rain = 0
KPD2 140736Z 12005KT 00/M13 A3034 RMK A01 T00011129  RH  037%=      5-min Rain = 0
KPD2 140737Z 13005KT 00/M13 A3034 RMK A01 T00011128  RH  037%=      5-min Rain = 0
KPD2 140738Z 12005KT 00/13 A3034 RMK A01 T00000-129  RH  037%=      5-min Rain = 0
KPD2 140739Z 12004KT 00/13 A3033 RMK A01 T00000-129  RH  037%=      5-min Rain = 0
KPD2 140740Z 12006KT M00/M13 A3033 RMK A01 T10011129  RH  037%=      5-min Rain = 0
KPD2 140741Z 12006KT M00/M13 A3033 RMK A01 T10011129  RH  037%=      5-min Rain = 0
KPD2 140742Z 12005KT M00/M13 A3033 RMK A01 T10011129  RH  037%=      5-min Rain = 0
KPD2 140743Z 12005KT M00/M13 A3033 RMK A01 T10011129  RH  038%=      5-min Rain = 0
KPD2 140744Z 12004KT M00/M13 A3033 RMK A01 T10021129  RH  038%=      5-min Rain = 0
KPD2 140745Z 11003KT M00/M13 A3034 RMK A01 T10031130  RH  038%=      5-min Rain = 0
KPD2 140746Z 10003KT M00/M13 A3034 RMK A01 T10041130  RH  038%=      5-min Rain = 0
KPD2 140747Z 10003KT M00/M13 A3034 RMK A01 T10041130  RH  038%=      5-min Rain = 0
KPD2 140748Z 12002KT M00/M13 A3033 RMK A01 T10041129  RH  038%=      5-min Rain = 0
KPD2 140749Z 11003KT M00/M13 A3033 RMK A01 T10041129  RH  038%=      5-min Rain = 0
KPD2 140750Z 12003KT M00/M13 A3033 RMK A01 T10041129  RH  038%=      5-min Rain = 0
KPD2 140751Z 13004KT M01/M13 A3033 RMK A01 T10051130  RH  038%=      5-min Rain = 0
KPD2 140752Z 13005KT M01/M13 A3033 RMK A01 T10051130  RH  038%=      5-min Rain = 0
KPD2 140753Z 13005KT M01/M13 A3033 RMK A01 T10051130  RH  038%=      5-min Rain = 0
KPD2 140754Z 12004KT M01/M13 A3033 RMK A01 T10051129  RH  039%=      5-min Rain = 0
KPD2 140755Z 12005KT M01/M13 A3033 RMK A01 T10051129  RH  039%=      5-min Rain = 0
KPD2 140756Z 12004KT M01/M13 A3033 RMK A01 T10051129  RH  039%=      5-min Rain = 0
KPD2 140757Z 13003KT M01/M13 A3033 RMK A01 T10051129  RH  039%=      5-min Rain = 0
KPD2 140758Z 13004KT M01/M13 A3033 RMK A01 T10061129  RH  039%=      5-min Rain = 0
KPD2 140759Z 13004KT M01/M13 A3033 RMK A01 T10061129  RH  039%=      5-min Rain = 0
KPD2 140800Z 12005KT M01/M13 A3033 RMK A01 T10071129  RH  039%=      5-min Rain = 0
KPD2 140801Z 12005KT M01/M13 A3033 RMK A01 T10071130  RH  039%=      5-min Rain = 0
KPD2 140802Z 13004KT M01/M13 A3033 RMK A01 T10071129  RH  039%=      5-min Rain = 0
KPD2 140803Z 13005KT M01/M13 A3033 RMK A01 T10071130  RH  039%=      5-min Rain = 0
KPD2 140804Z 12006KT M01/M13 A3033 RMK A01 T10081130  RH  039%=      5-min Rain = 0
KPD2 140805Z 12005KT M01/M13 A3033 RMK A01 T10081130  RH  039%=      5-min Rain = 0
KPD2 140806Z 12004KT M01/M13 A3033 RMK A01 T10091130  RH  039%=      5-min Rain = 0
KPD2 140807Z 12004KT M01/M13 A3033 RMK A01 T10101130  RH  040%=      5-min Rain = 0
KPD2 140808Z 12004KT M01/M13 A3033 RMK A01 T10101130  RH  040%=      5-min Rain = 0
KPD2 140809Z 12003KT M01/M13 A3033 RMK A01 T10111131  RH  040%=      5-min Rain = 0
KPD2 140810Z 11003KT M01/M13 A3033 RMK A01 T10121131  RH  040%=      5-min Rain = 0
KPD2 140811Z 09003KT M01/M13 A3033 RMK A01 T10131131  RH  040%=      5-min Rain = 0
KPD2 140812Z 11004KT M01/M13 A3033 RMK A01 T10131131  RH  040%=      5-min Rain = 0
KPD2 140813Z 10005KT M01/M13 A3033 RMK A01 T10131130  RH  041%=      5-min Rain = 0
KPD2 140814Z 10005KT M01/M13 A3033 RMK A01 T10111128  RH  041%=      5-min Rain = 0
KPD2 140815Z 10006KT M01/M13 A3033 RMK A01 T10091127  RH  040%=      5-min Rain = 0
KPD2 140816Z 10005KT M01/M13 A3033 RMK A01 T10071127  RH  040%=      5-min Rain = 0
KPD2 140817Z 10006KT M01/M13 A3033 RMK A01 T10061127  RH  039%=      5-min Rain = 0
KPD2 140818Z 10007KT M01/M13 A3033 RMK A01 T10051127  RH  039%=      5-min Rain = 0
KPD2 140819Z 10007KT M00/M13 A3033 RMK A01 T10041128  RH  039%=      5-min Rain = 0
KPD2 140820Z 10006KT M00/M13 A3033 RMK A01 T10031128  RH  039%=      5-min Rain = 0
KPD2 140821Z 11006KT M00/M13 A3033 RMK A01 T10031128  RH  038%=      5-min Rain = 0
KPD2 140822Z 11005KT M00/M13 A3033 RMK A01 T10021128  RH  038%=      5-min Rain = 0
KPD2 140823Z 11006KT M00/M13 A3033 RMK A01 T10021128  RH  038%=      5-min Rain = 0
KPD2 140824Z 11005KT M00/M13 A3033 RMK A01 T10021128  RH  038%=      5-min Rain = 0
KPD2 140825Z 11005KT M00/M13 A3033 RMK A01 T10021128  RH  038%=      5-min Rain = 0
KPD2 140826Z 12005KT M00/M13 A3033 RMK A01 T10021129  RH  038%=      5-min Rain = 0
KPD2 140827Z 11004KT M00/M13 A3033 RMK A01 T10031129  RH  038%=      5-min Rain = 0
KPD2 140828Z 12004KT M00/M13 A3033 RMK A01 T10031129  RH  038%=      5-min Rain = 0
KPD2 140829Z 12004KT M00/M13 A3033 RMK A01 T10041129  RH  038%=      5-min Rain = 0
KPD2 140830Z 12004KT M00/M13 A3033 RMK A01 T10041129  RH  038%=      5-min Rain = 0
KPD2 140831Z 11005KT M01/M13 A3033 RMK A01 T10051129  RH  038%=      5-min Rain = 0
KPD2 140832Z 12004KT M01/M13 A3033 RMK A01 T10051129  RH  039%=      5-min Rain = 0
KPD2 140833Z 10004KT M01/M13 A3033 RMK A01 T10051129  RH  039%=      5-min Rain = 0
KPD2 140834Z 10004KT M01/M13 A3033 RMK A01 T10051129  RH  038%=      5-min Rain = 0
KPD2 140835Z 11003KT M01/M13 A3033 RMK A01 T10051129  RH  039%=      5-min Rain = 0
KPD2 140836Z 10004KT M01/M13 A3033 RMK A01 T10061130  RH  038%=      5-min Rain = 0
KPD2 140837Z 10005KT M01/M13 A3033 RMK A01 T10051129  RH  039%=      5-min Rain = 0
KPD2 140838Z 11004KT M01/M13 A3033 RMK A01 T10051129  RH  039%=      5-min Rain = 0
KPD2 140839Z 12003KT M01/M13 A3033 RMK A01 T10051129  RH  039%=      5-min Rain = 0
KPD2 140840Z 11003KT M01/M13 A3033 RMK A01 T10061130  RH  039%=      5-min Rain = 0
KPD2 140841Z 12003KT M01/M13 A3033 RMK A01 T10061130  RH  039%=      5-min Rain = 0
KPD2 140842Z 11003KT M01/M13 A3033 RMK A01 T10061130  RH  039%=      5-min Rain = 0
KPD2 140843Z 12004KT M01/M13 A3033 RMK A01 T10061130  RH  039%=      5-min Rain = 0
KPD2 140844Z 11005KT M01/M13 A3033 RMK A01 T10071130  RH  039%=      5-min Rain = 0
KPD2 140845Z 11004KT M01/M13 A3033 RMK A01 T10071130  RH  039%=      5-min Rain = 0
KPD2 140846Z 11004KT M01/M13 A3033 RMK A01 T10071130  RH  039%=      5-min Rain = 0
KPD2 140847Z 12004KT M01/M13 A3033 RMK A01 T10071130  RH  039%=      5-min Rain = 0
KPD2 140848Z 13004KT M01/M13 A3033 RMK A01 T10071130  RH  039%=      5-min Rain = 0
KPD2 140849Z 12003KT M01/M13 A3033 RMK A01 T10081130  RH  039%=      5-min Rain = 0
KPD2 140850Z 12004KT M01/M13 A3033 RMK A01 T10091130  RH  039%=      5-min Rain = 0
KPD2 140851Z 12004KT M01/M13 A3033 RMK A01 T10101131  RH  039%=      5-min Rain = 0
KPD2 140852Z 12004KT M01/M13 A3033 RMK A01 T10101131  RH  040%=      5-min Rain = 0
KPD2 140853Z 12003KT M01/M13 A3033 RMK A01 T10111131  RH  040%=      5-min Rain = 0
KPD2 140854Z 13004KT M01/M13 A3033 RMK A01 T10111131  RH  040%=      5-min Rain = 0
KPD2 140855Z 13004KT M01/M13 A3033 RMK A01 T10121131  RH  040%=      5-min Rain = 0
KPD2 140856Z 12004KT M01/M13 A3033 RMK A01 T10121131  RH  040%=      5-min Rain = 0
KPD2 140857Z 12004KT M01/M13 A3033 RMK A01 T10131131  RH  040%=      5-min Rain = 0
KPD2 140858Z 10003KT M01/M13 A3033 RMK A01 T10131131  RH  040%=      5-min Rain = 0
KPD2 140859Z 10004KT M01/M13 A3033 RMK A01 T10131131  RH  040%=      5-min Rain = 0
KPD2 140900Z 10003KT M01/M13 A3033 RMK A01 T10141131  RH  040%=      5-min Rain = 0
KPD2 140901Z 11004KT M01/M13 A3033 RMK A01 T10131131  RH  040%=      5-min Rain = 0
KPD2 140902Z 10004KT M01/M13 A3033 RMK A01 T10141131  RH  040%=      5-min Rain = 0
KPD2 140903Z 11003KT M01/M13 A3034 RMK A01 T10131131  RH  040%=      5-min Rain = 0
KPD2 140904Z 11003KT M01/M13 A3034 RMK A01 T10131131  RH  040%=      5-min Rain = 0
KPD2 140905Z 11005KT M01/M13 A3033 RMK A01 T10121131  RH  040%=      5-min Rain = 0
KPD2 140906Z 12005KT M01/M13 A3033 RMK A01 T10111130  RH  040%=      5-min Rain = 0
KPD2 140907Z 12004KT M01/M13 A3033 RMK A01 T10101130  RH  040%=      5-min Rain = 0
KPD2 140908Z 12004KT M01/M13 A3033 RMK A01 T10101130  RH  040%=      5-min Rain = 0
KPD2 140909Z 11003KT M01/M13 A3033 RMK A01 T10101131  RH  039%=      5-min Rain = 0
KPD2 140910Z 12004KT M01/M13 A3033 RMK A01 T10101131  RH  039%=      5-min Rain = 0
KPD2 140911Z 13004KT M01/M13 A3033 RMK A01 T10101131  RH  039%=      5-min Rain = 0
KPD2 140912Z 12003KT M01/M13 A3033 RMK A01 T10101131  RH  039%=      5-min Rain = 0
KPD2 140913Z 14003KT M01/M13 A3033 RMK A01 T10101131  RH  039%=      5-min Rain = 0
KPD2 140914Z 15002KT M01/M13 A3034 RMK A01 T10121131  RH  040%=      5-min Rain = 0
KPD2 140915Z 14003KT M01/M13 A3034 RMK A01 T10131132  RH  040%=      5-min Rain = 0
KPD2 140916Z 15003KT M02/M13 A3033 RMK A01 T10151132  RH  041%=      5-min Rain = 0
KPD2 140917Z 13003KT M02/M13 A3034 RMK A01 T10171132  RH  041%=      5-min Rain = 0
KPD2 140918Z 14003KT M02/M13 A3034 RMK A01 T10181132  RH  041%=      5-min Rain = 0
KPD2 140919Z 14003KT M02/M13 A3034 RMK A01 T10191132  RH  042%=      5-min Rain = 0
KPD2 140920Z 15003KT M02/M13 A3034 RMK A01 T10201133  RH  042%=      5-min Rain = 0
KPD2 140921Z 14003KT M02/M13 A3034 RMK A01 T10221133  RH  042%=      5-min Rain = 0
KPD2 140922Z 15003KT M02/M13 A3034 RMK A01 T10231133  RH  043%=      5-min Rain = 0
KPD2 140923Z 15003KT M02/M13 A3034 RMK A01 T10241132  RH  043%=      5-min Rain = 0
KPD2 140924Z 16003KT M02/M13 A3034 RMK A01 T10241132  RH  043%=      5-min Rain = 0
KPD2 140925Z 16003KT M03/M13 A3034 RMK A01 T10251132  RH  043%=      5-min Rain = 0
KPD2 140926Z 16003KT M03/M13 A3034 RMK A01 T10251132  RH  044%=      5-min Rain = 0
KPD2 140927Z 15002KT M03/M13 A3034 RMK A01 T10261133  RH  044%=      5-min Rain = 0
KPD2 140928Z 15002KT M03/M13 A3034 RMK A01 T10261133  RH  044%=      5-min Rain = 0
KPD2 140929Z 15002KT M03/M13 A3034 RMK A01 T10271132  RH  044%=      5-min Rain = 0
KPD2 140930Z 15003KT M03/M13 A3034 RMK A01 T10271133  RH  044%=      5-min Rain = 0
KPD2 140931Z 15003KT M03/M13 A3034 RMK A01 T10271133  RH  044%=      5-min Rain = 0
KPD2 140932Z 15003KT M03/M13 A3034 RMK A01 T10271133  RH  044%=      5-min Rain = 0
KPD2 140933Z 15003KT M03/M13 A3034 RMK A01 T10271132  RH  044%=      5-min Rain = 0
KPD2 140934Z 15003KT M03/M13 A3034 RMK A01 T10271132  RH  044%=      5-min Rain = 0
KPD2 140935Z 14003KT M03/M13 A3034 RMK A01 T10271132  RH  044%=      5-min Rain = 0
KPD2 140936Z 14003KT M03/M13 A3034 RMK A01 T10271132  RH  044%=      5-min Rain = 0
KPD2 140937Z 13003KT M03/M13 A3034 RMK A01 T10271132  RH  044%=      5-min Rain = 0
KPD2 140938Z 12003KT M03/M13 A3034 RMK A01 T10271133  RH  044%=      5-min Rain = 0
KPD2 140939Z 12003KT M03/M13 A3034 RMK A01 T10271132  RH  044%=      5-min Rain = 0
KPD2 140940Z 12003KT M03/M13 A3034 RMK A01 T10271132  RH  044%=      5-min Rain = 0
KPD2 140941Z 12003KT M03/M13 A3034 RMK A01 T10281133  RH  044%=      5-min Rain = 0
KPD2 140942Z 12003KT M03/M13 A3034 RMK A01 T10281133  RH  044%=      5-min Rain = 0
KPD2 140943Z 12002KT M03/M13 A3034 RMK A01 T10281133  RH  044%=      5-min Rain = 0
KPD2 140944Z 13002KT M03/M13 A3034 RMK A01 T10281133  RH  044%=      5-min Rain = 0
KPD2 140945Z 14003KT M03/M13 A3035 RMK A01 T10281133  RH  044%=      5-min Rain = 0
KPD2 140946Z 13004KT M03/M13 A3035 RMK A01 T10281132  RH  044%=      5-min Rain = 0
KPD2 140947Z 13003KT M03/M13 A3035 RMK A01 T10281133  RH  044%=      5-min Rain = 0
KPD2 140948Z 13003KT M03/M13 A3035 RMK A01 T10281133  RH  044%=      5-min Rain = 0
KPD2 140949Z 13003KT M03/M13 A3035 RMK A01 T10281133  RH  044%=      5-min Rain = 0
KPD2 140950Z 14004KT M03/M13 A3035 RMK A01 T10281133  RH  044%=      5-min Rain = 0
KPD2 140951Z 14004KT M03/M13 A3035 RMK A01 T10291133  RH  044%=      5-min Rain = 0
KPD2 140952Z 14004KT M03/M13 A3035 RMK A01 T10301134  RH  045%=      5-min Rain = 0
KPD2 140953Z 14004KT M03/M13 A3035 RMK A01 T10301134  RH  045%=      5-min Rain = 0
KPD2 140954Z 14004KT M03/M13 A3035 RMK A01 T10311134  RH  045%=      5-min Rain = 0
KPD2 140955Z 14004KT M03/M13 A3035 RMK A01 T10311134  RH  045%=      5-min Rain = 0
KPD2 140956Z 13003KT M03/M13 A3035 RMK A01 T10311134  RH  045%=      5-min Rain = 0
KPD2 140957Z 13004KT M03/M13 A3035 RMK A01 T10311133  RH  045%=      5-min Rain = 0
KPD2 140958Z 12004KT M03/M13 A3035 RMK A01 T10321134  RH  045%=      5-min Rain = 0
KPD2 140959Z 11003KT M03/M13 A3035 RMK A01 T10321134  RH  045%=      5-min Rain = 0
KPD2 141000Z 10002KT M03/M13 A3035 RMK A01 T10321134  RH  045%=      5-min Rain = 0
KPD2 141001Z 11001KT M03/M13 A3035 RMK A01 T10321134  RH  045%=      5-min Rain = 0
KPD2 141002Z 13001KT M03/M13 A3035 RMK A01 T10321134  RH  045%=      5-min Rain = 0
KPD2 141003Z 13002KT M03/M13 A3035 RMK A01 T10331134  RH  045%=      5-min Rain = 0
KPD2 141004Z 12002KT M03/M13 A3035 RMK A01 T10331134  RH  046%=      5-min Rain = 0
KPD2 141005Z 12002KT M03/M13 A3035 RMK A01 T10331134  RH  046%=      5-min Rain = 0
KPD2 141006Z 11002KT M03/M13 A3035 RMK A01 T10331134  RH  046%=      5-min Rain = 0
KPD2 141007Z 11003KT M03/M13 A3035 RMK A01 T10331134  RH  046%=      5-min Rain = 0
KPD2 141008Z 10003KT M03/M13 A3035 RMK A01 T10331134  RH  046%=      5-min Rain = 0
KPD2 141009Z 11003KT M03/M13 A3035 RMK A01 T10331134  RH  046%=      5-min Rain = 0
KPD2 141010Z 12004KT M03/M13 A3035 RMK A01 T10321133  RH  046%=      5-min Rain = 0
KPD2 141011Z 13004KT M03/M13 A3035 RMK A01 T10321133  RH  046%=      5-min Rain = 0
KPD2 141012Z 13003KT M03/M13 A3035 RMK A01 T10311132  RH  045%=      5-min Rain = 0
KPD2 141013Z 13003KT M03/M13 A3035 RMK A01 T10311133  RH  045%=      5-min Rain = 0
KPD2 141014Z 13003KT M03/M13 A3035 RMK A01 T10311134  RH  045%=      5-min Rain = 0
KPD2 141015Z 13003KT M03/M13 A3035 RMK A01 T10311134  RH  045%=      5-min Rain = 0
KPD2 141016Z 13002KT M03/M13 A3035 RMK A01 T10321134  RH  045%=      5-min Rain = 0
KPD2 141017Z 13002KT M03/M13 A3035 RMK A01 T10331134  RH  045%=      5-min Rain = 0
KPD2 141018Z 11002KT M03/M14 A3035 RMK A01 T10331135  RH  045%=      5-min Rain = 0
KPD2 141019Z 10002KT M03/M14 A3035 RMK A01 T10341135  RH  046%=      5-min Rain = 0
KPD2 141020Z 11002KT M03/M13 A3035 RMK A01 T10341134  RH  046%=      5-min Rain = 0
KPD2 141021Z 11003KT M03/M13 A3035 RMK A01 T10341134  RH  046%=      5-min Rain = 0
KPD2 141022Z 11002KT M03/M13 A3035 RMK A01 T10341134  RH  046%=      5-min Rain = 0
KPD2 141023Z 12002KT M03/M13 A3035 RMK A01 T10341134  RH  046%=      5-min Rain = 0
KPD2 141024Z 13002KT M03/M14 A3035 RMK A01 T10341135  RH  046%=      5-min Rain = 0
KPD2 141025Z 12001KT M03/M14 A3035 RMK A01 T10341135  RH  046%=      5-min Rain = 0
KPD2 141026Z 13001KT M03/M14 A3035 RMK A01 T10341135  RH  046%=      5-min Rain = 0
KPD2 141027Z 13002KT M04/M13 A3035 RMK A01 T10351134  RH  046%=      5-min Rain = 0
KPD2 141028Z 13002KT M04/M13 A3035 RMK A01 T10351134  RH  046%=      5-min Rain = 0
KPD2 141029Z 13002KT M04/M13 A3035 RMK A01 T10351134  RH  046%=      5-min Rain = 0
KPD2 141030Z 13002KT M04/M13 A3035 RMK A01 T10351134  RH  046%=      5-min Rain = 0
KPD2 141031Z 13002KT M04/M14 A3035 RMK A01 T10351135  RH  046%=      5-min Rain = 0
KPD2 141032Z 13001KT M04/M13 A3035 RMK A01 T10351134  RH  046%=      5-min Rain = 0
KPD2 141033Z 13001KT M04/M13 A3035 RMK A01 T10361134  RH  046%=      5-min Rain = 0
KPD2 141034Z 14002KT M04/M14 A3035 RMK A01 T10361135  RH  046%=      5-min Rain = 0
KPD2 141035Z 14002KT M04/M14 A3035 RMK A01 T10371135  RH  046%=      5-min Rain = 0
KPD2 141036Z 14001KT M04/M14 A3035 RMK A01 T10371135  RH  047%=      5-min Rain = 0
KPD2 141037Z 14001KT M04/M14 A3035 RMK A01 T10381135  RH  047%=      5-min Rain = 0
KPD2 141038Z 14001KT M04/M14 A3035 RMK A01 T10381135  RH  047%=      5-min Rain = 0
KPD2 141039Z 14002KT M04/M14 A3035 RMK A01 T10381135  RH  047%=      5-min Rain = 0
KPD2 141040Z 14002KT M04/M14 A3035 RMK A01 T10391135  RH  047%=      5-min Rain = 0
KPD2 141041Z 14002KT M04/M14 A3035 RMK A01 T10401135  RH  048%=      5-min Rain = 0
KPD2 141042Z 14002KT M04/M14 A3035 RMK A01 T10411135  RH  048%=      5-min Rain = 0
KPD2 141043Z 13002KT M04/M14 A3035 RMK A01 T10421136  RH  048%=      5-min Rain = 0
KPD2 141044Z 13002KT M04/M14 A3035 RMK A01 T10421136  RH  048%=      5-min Rain = 0
KPD2 141045Z 14002KT M04/M14 A3035 RMK A01 T10421136  RH  048%=      5-min Rain = 0
KPD2 141046Z 14001KT M04/M14 A3035 RMK A01 T10431137  RH  048%=      5-min Rain = 0
KPD2 141047Z 13002KT M04/M14 A3035 RMK A01 T10441138  RH  048%=      5-min Rain = 0
KPD2 141048Z 13002KT M05/M14 A3035 RMK A01 T10451138  RH  049%=      5-min Rain = 0
KPD2 141049Z 14003KT M05/M14 A3035 RMK A01 T10461137  RH  049%=      5-min Rain = 0
KPD2 141050Z 13003KT M05/M14 A3034 RMK A01 T10461136  RH  049%=      5-min Rain = 0
KPD2 141051Z 13002KT M05/M14 A3034 RMK A01 T10461136  RH  049%=      5-min Rain = 0
KPD2 141052Z 13001KT M05/M14 A3034 RMK A01 T10471137  RH  049%=      5-min Rain = 0
KPD2 141053Z 13001KT M05/M14 A3034 RMK A01 T10471138  RH  049%=      5-min Rain = 0
KPD2 141054Z 12001KT M05/M14 A3034 RMK A01 T10481137  RH  050%=      5-min Rain = 0
KPD2 141055Z 12001KT M05/M14 A3034 RMK A01 T10481136  RH  050%=      5-min Rain = 0
KPD2 141056Z 12001KT M05/M14 A3034 RMK A01 T10481136  RH  050%=      5-min Rain = 0
KPD2 141057Z 11001KT M05/M14 A3034 RMK A01 T10481137  RH  050%=      5-min Rain = 0
KPD2 141058Z 11000KT M05/M14 A3034 RMK A01 T10481137  RH  050%=      5-min Rain = 0
KPD2 141059Z 00000KT M05/M14 A3034 RMK A01 T10491137  RH  050%=      5-min Rain = 0
KPD2 141100Z 00000KT M05/M14 A3034 RMK A01 T10491136  RH  050%=      5-min Rain = 0
KPD2 141101Z 00000KT M05/M14 A3034 RMK A01 T10491136  RH  050%=      5-min Rain = 0
KPD2 141102Z 00000KT M05/M14 A3034 RMK A01 T10491136  RH  050%=      5-min Rain = 0
KPD2 141103Z 00000KT M05/M14 A3034 RMK A01 T10481135  RH  050%=      5-min Rain = 0
KPD2 141104Z 00000KT M05/M14 A3034 RMK A01 T10481136  RH  050%=      5-min Rain = 0
KPD2 141105Z 14000KT M05/M14 A3034 RMK A01 T10481136  RH  050%=      5-min Rain = 0
KPD2 141106Z 00000KT M05/M14 A3034 RMK A01 T10481136  RH  050%=      5-min Rain = 0
KPD2 141107Z 00000KT M05/M14 A3034 RMK A01 T10491137  RH  050%=      5-min Rain = 0
KPD2 141108Z 14001KT M05/M14 A3034 RMK A01 T10501137  RH  050%=      5-min Rain = 0
KPD2 141109Z 15001KT M05/M14 A3034 RMK A01 T10501137  RH  051%=      5-min Rain = 0
KPD2 141110Z 15001KT M05/M14 A3034 RMK A01 T10501136  RH  051%=      5-min Rain = 0
KPD2 141111Z 16001KT M05/M14 A3034 RMK A01 T10501136  RH  051%=      5-min Rain = 0
KPD2 141112Z 16001KT M05/M14 A3034 RMK A01 T10501135  RH  051%=      5-min Rain = 0
KPD2 141113Z 16001KT M05/M14 A3034 RMK A01 T10501135  RH  051%=      5-min Rain = 0
KPD2 141114Z 16001KT M05/M14 A3034 RMK A01 T10501135  RH  051%=      5-min Rain = 0
KPD2 141115Z 16001KT M05/M14 A3034 RMK A01 T10501136  RH  051%=      5-min Rain = 0
KPD2 141116Z 16001KT M05/M14 A3034 RMK A01 T10501136  RH  051%=      5-min Rain = 0
KPD2 141117Z 16002KT M05/M14 A3034 RMK A01 T10501136  RH  051%=      5-min Rain = 0
KPD2 141118Z 16002KT M05/M14 A3034 RMK A01 T10501136  RH  051%=      5-min Rain = 0
KPD2 141119Z 16001KT M05/M14 A3034 RMK A01 T10501136  RH  051%=      5-min Rain = 0
KPD2 141120Z 16001KT M05/M14 A3034 RMK A01 T10511138  RH  051%=      5-min Rain = 0
KPD2 141121Z 16001KT M05/M14 A3034 RMK A01 T10521139  RH  051%=      5-min Rain = 0
KPD2 141122Z 14000KT M05/M14 A3034 RMK A01 T10521137  RH  051%=      5-min Rain = 0
KPD2 141123Z 13001KT M05/M14 A3034 RMK A01 T10521137  RH  051%=      5-min Rain = 0
KPD2 141124Z 13002KT M05/M14 A3034 RMK A01 T10511136  RH  051%=      5-min Rain = 0
KPD2 141125Z 13002KT M05/M14 A3034 RMK A01 T10511137  RH  051%=      5-min Rain = 0
KPD2 141126Z 13002KT M05/M14 A3033 RMK A01 T10511137  RH  051%=      5-min Rain = 0
KPD2 141127Z 13002KT M05/M14 A3033 RMK A01 T10511137  RH  051%=      5-min Rain = 0
KPD2 141128Z 12002KT M05/M14 A3033 RMK A01 T10501137  RH  051%=      5-min Rain = 0
KPD2 141129Z 12001KT M05/M14 A3034 RMK A01 T10511137  RH  051%=      5-min Rain = 0
KPD2 141130Z 00000KT M05/M14 A3034 RMK A01 T10521138  RH  051%=      5-min Rain = 0
KPD2 141131Z 11000KT M05/M14 A3034 RMK A01 T10521138  RH  051%=      5-min Rain = 0
KPD2 141132Z 00002KT M05/M14 A3034 RMK A01 T10521136  RH  052%=      5-min Rain = 0
KPD2 141133Z 00002KT M05/M14 A3034 RMK A01 T10521136  RH  051%=      5-min Rain = 0
KPD2 141134Z 35002KT M05/M14 A3034 RMK A01 T10511136  RH  052%=      5-min Rain = 0
KPD2 141135Z 35001KT M05/M14 A3034 RMK A01 T10501135  RH  052%=      5-min Rain = 0
KPD2 141136Z 35001KT M05/M14 A3034 RMK A01 T10501135  RH  051%=      5-min Rain = 0
KPD2 141137Z 35001KT M05/M14 A3034 RMK A01 T10501136  RH  051%=      5-min Rain = 0
KPD2 141138Z 35000KT M05/M14 A3034 RMK A01 T10501136  RH  051%=      5-min Rain = 0
KPD2 141139Z 00000KT M05/M14 A3034 RMK A01 T10501137  RH  050%=      5-min Rain = 0
KPD2 141140Z 00000KT M05/M14 A3034 RMK A01 T10521139  RH  050%=      5-min Rain = 0
KPD2 141141Z 00000KT M05/M14 A3034 RMK A01 T10531139  RH  051%=      5-min Rain = 0
KPD2 141142Z 00000KT M05/M14 A3034 RMK A01 T10541139  RH  051%=      5-min Rain = 0
KPD2 141143Z 00000KT M06/M14 A3034 RMK A01 T10551139  RH  051%=      5-min Rain = 0
KPD2 141144Z 00000KT M06/M14 A3034 RMK A01 T10561140  RH  052%=      5-min Rain = 0
KPD2 141145Z 00000KT M06/M14 A3034 RMK A01 T10571140  RH  052%=      5-min Rain = 0
KPD2 141146Z 00000KT M06/M14 A3034 RMK A01 T10581140  RH  052%=      5-min Rain = 0
KPD2 141147Z 35001KT M06/M14 A3034 RMK A01 T10591141  RH  052%=      5-min Rain = 0
KPD2 141148Z 35001KT M06/M14 A3034 RMK A01 T10611143  RH  052%=      5-min Rain = 0
KPD2 141149Z 35001KT M06/M14 A3034 RMK A01 T10621142  RH  053%=      5-min Rain = 0
KPD2 141150Z 35001KT M06/M14 A3034 RMK A01 T10621139  RH  054%=      5-min Rain = 0
KPD2 141151Z 35001KT M06/M14 A3034 RMK A01 T10621139  RH  055%=      5-min Rain = 0
KPD2 141152Z 35002KT M06/M14 A3034 RMK A01 T10621138  RH  055%=      5-min Rain = 0
KPD2 141153Z 35001KT M06/M14 A3034 RMK A01 T10621138  RH  055%=      5-min Rain = 0
KPD2 141154Z 35001KT M06/M14 A3034 RMK A01 T10621138  RH  055%=      5-min Rain = 0
KPD2 141155Z 35001KT M06/M14 A3034 RMK A01 T10611137  RH  055%=      5-min Rain = 0
KPD2 141156Z 35000KT M06/M14 A3034 RMK A01 T10611137  RH  055%=      5-min Rain = 0
KPD2 141157Z 35000KT M06/M14 A3033 RMK A01 T10601137  RH  055%=      5-min Rain = 0
KPD2 141158Z 35001KT M06/M14 A3033 RMK A01 T10601137  RH  055%=      5-min Rain = 0
KPD2 141159Z 35001KT M06/M14 A3033 RMK A01 T10601136  RH  055%=      5-min Rain = 0
KPD2 141200Z 35000KT M06/M14 A3033 RMK A01 T10601136  RH  055%=      5-min Rain = 0
KPD2 141201Z 35000KT M06/M14 A3033 RMK A01 T10591136  RH  055%=      5-min Rain = 0
KPD2 141202Z 35001KT M06/M14 A3033 RMK A01 T10591136  RH  055%=      5-min Rain = 0
KPD2 141203Z 35000KT M06/M14 A3033 RMK A01 T10581135  RH  054%=      5-min Rain = 0
KPD2 141204Z 00000KT M06/M14 A3033 RMK A01 T10561135  RH  054%=      5-min Rain = 0
KPD2 141205Z 35000KT M06/M14 A3033 RMK A01 T10551135  RH  053%=      5-min Rain = 0
KPD2 141206Z 35000KT M05/M14 A3033 RMK A01 T10541135  RH  053%=      5-min Rain = 0
KPD2 141207Z 35000KT M05/M14 A3033 RMK A01 T10531135  RH  052%=      5-min Rain = 0
KPD2 141208Z 35000KT M05/M14 A3033 RMK A01 T10521135  RH  052%=      5-min Rain = 0
KPD2 141209Z 35000KT M05/M14 A3033 RMK A01 T10511135  RH  052%=      5-min Rain = 0
KPD2 141210Z 35001KT M05/M14 A3033 RMK A01 T10511135  RH  052%=      5-min Rain = 0
KPD2 141211Z 35001KT M05/M13 A3033 RMK A01 T10501134  RH  052%=      5-min Rain = 0
KPD2 141212Z 35002KT M05/M14 A3033 RMK A01 T10491135  RH  051%=      5-min Rain = 0
KPD2 141213Z 35001KT M05/M14 A3033 RMK A01 T10491135  RH  051%=      5-min Rain = 0
KPD2 141214Z 35000KT M05/M14 A3033 RMK A01 T10521141  RH  050%=      5-min Rain = 0
KPD2 141215Z 00000KT M06/M14 A3033 RMK A01 T10551143  RH  050%=      5-min Rain = 0
KPD2 141216Z 00000KT M06/M14 A3033 RMK A01 T10581143  RH  051%=      5-min Rain = 0
KPD2 141217Z 00000KT M06/M14 A3033 RMK A01 T10591143  RH  051%=      5-min Rain = 0
KPD2 141218Z 00000KT M06/M14 A3033 RMK A01 T10601143  RH  052%=      5-min Rain = 0
KPD2 141219Z 00000KT M06/M14 A3033 RMK A01 T10621144  RH  052%=      5-min Rain = 0
KPD2 141220Z 00000KT M06/M14 A3033 RMK A01 T10631144  RH  053%=      5-min Rain = 0
KPD2 141221Z 35001KT M07/M14 A3033 RMK A01 T10651144  RH  053%=      5-min Rain = 0
KPD2 141222Z 35001KT M07/M14 A3033 RMK A01 T10661144  RH  054%=      5-min Rain = 0
KPD2 141223Z 35001KT M07/M14 A3033 RMK A01 T10671144  RH  054%=      5-min Rain = 0
KPD2 141224Z 35001KT M07/M14 A3033 RMK A01 T10681144  RH  055%=      5-min Rain = 0
KPD2 141225Z 35001KT M07/M14 A3033 RMK A01 T10681143  RH  055%=      5-min Rain = 0
KPD2 141226Z 35000KT M07/M14 A3033 RMK A01 T10681141  RH  056%=      5-min Rain = 0
KPD2 141227Z 00000KT M07/M14 A3033 RMK A01 T10681142  RH  056%=      5-min Rain = 0
KPD2 141228Z 00000KT M07/M14 A3033 RMK A01 T10691142  RH  056%=      5-min Rain = 0
KPD2 141229Z 00000KT M07/M14 A3033 RMK A01 T10691142  RH  056%=      5-min Rain = 0
KPD2 141230Z 00000KT M07/M14 A3033 RMK A01 T10691142  RH  056%=      5-min Rain = 0
KPD2 141231Z 00000KT M07/M14 A3033 RMK A01 T10691141  RH  057%=      5-min Rain = 0
KPD2 141232Z 31000KT M07/M14 A3033 RMK A01 T10691141  RH  057%=      5-min Rain = 0
KPD2 141233Z 31001KT M07/M14 A3033 RMK A01 T10691141  RH  056%=      5-min Rain = 0
KPD2 141234Z 29002KT M07/M14 A3033 RMK A01 T10691142  RH  056%=      5-min Rain = 0
KPD2 141235Z 29002KT M07/M14 A3034 RMK A01 T10701143  RH  056%=      5-min Rain = 0
KPD2 141236Z 30003KT M07/M14 A3034 RMK A01 T10701143  RH  056%=      5-min Rain = 0
KPD2 141237Z 31003KT M07/M14 A3034 RMK A01 T10711143  RH  056%=      5-min Rain = 0
KPD2 141238Z 31002KT M07/M14 A3034 RMK A01 T10711143  RH  057%=      5-min Rain = 0
KPD2 141239Z 33001KT M07/M14 A3034 RMK A01 T10721143  RH  057%=      5-min Rain = 0
KPD2 141240Z 33001KT M07/M14 A3034 RMK A01 T10721143  RH  057%=      5-min Rain = 0
KPD2 141241Z 31001KT M07/M14 A3034 RMK A01 T10721142  RH  057%=      5-min Rain = 0
KPD2 141242Z 32001KT M07/M14 A3034 RMK A01 T10721142  RH  057%=      5-min Rain = 0
KPD2 141243Z 32002KT M07/M14 A3034 RMK A01 T10721142  RH  058%=      5-min Rain = 0
KPD2 141244Z 32002KT M07/M14 A3034 RMK A01 T10721142  RH  058%=      5-min Rain = 0
KPD2 141245Z 32001KT M07/M14 A3034 RMK A01 T10721141  RH  058%=      5-min Rain = 0
KPD2 141246Z 32002KT M07/M14 A3034 RMK A01 T10701140  RH  058%=      5-min Rain = 0
KPD2 141247Z 31002KT M07/M14 A3034 RMK A01 T10701139  RH  058%=      5-min Rain = 0
KPD2 141248Z 30002KT M07/M14 A3034 RMK A01 T10691139  RH  057%=      5-min Rain = 0
KPD2 141249Z 31002KT M07/M14 A3034 RMK A01 T10691139  RH  057%=      5-min Rain = 0
KPD2 141250Z 31002KT M07/M14 A3035 RMK A01 T10681140  RH  057%=      5-min Rain = 0
KPD2 141251Z 32003KT M07/M14 A3035 RMK A01 T10681141  RH  056%=      5-min Rain = 0
KPD2 141252Z 33003KT M07/M14 A3035 RMK A01 T10691142  RH  056%=      5-min Rain = 0
KPD2 141253Z 34003KT M07/M14 A3035 RMK A01 T10701144  RH  056%=      5-min Rain = 0
KPD2 141254Z 35004KT M07/M15 A3036 RMK A01 T10721146  RH  056%=      5-min Rain = 0
KPD2 141255Z 34005KT M07/M15 A3037 RMK A01 T10731147  RH  056%=      5-min Rain = 0
KPD2 141256Z 32006KT M08/M15 A3038 RMK A01 T10761150  RH  055%=      5-min Rain = 0
KPD2 141257Z 31004KT M08/M15 A3038 RMK A01 T10781151  RH  056%=      5-min Rain = 0
KPD2 141258Z 27002KT M08/M15 A3037 RMK A01 T10791151  RH  056%=      5-min Rain = 0
KPD2 141259Z 25004KT M08/M15 A3037 RMK A01 T10791149  RH  057%=      5-min Rain = 0
KPD2 141300Z 27004KT M08/M15 A3037 RMK A01 T10791147  RH  058%=      5-min Rain = 0
KPD2 141301Z 28005KT M08/M15 A3038 RMK A01 T10781145  RH  058%=      5-min Rain = 0
KPD2 141302Z 28004KT M08/M14 A3037 RMK A01 T10771144  RH  059%=      5-min Rain = 0
KPD2 141303Z 30004KT M08/M14 A3037 RMK A01 T10771143  RH  059%=      5-min Rain = 0
KPD2 141304Z 32005KT M08/M14 A3037 RMK A01 T10761142  RH  059%=      5-min Rain = 0
KPD2 141305Z 31004KT M08/M14 A3037 RMK A01 T10751142  RH  059%=      5-min Rain = 0
KPD2 141306Z 32004KT M07/M14 A3037 RMK A01 T10741141  RH  059%=      5-min Rain = 0
KPD2 141307Z 33003KT M07/M14 A3037 RMK A01 T10731141  RH  058%=      5-min Rain = 0
KPD2 141308Z 35004KT M07/M14 A3037 RMK A01 T10731141  RH  058%=      5-min Rain = 0
KPD2 141309Z 35003KT M07/M14 A3038 RMK A01 T10721140  RH  058%=      5-min Rain = 0
KPD2 141310Z 01004KT M07/M14 A3037 RMK A01 T10721141  RH  058%=      5-min Rain = 0
KPD2 141311Z 00005KT M07/M14 A3038 RMK A01 T10721141  RH  058%=      5-min Rain = 0
KPD2 141312Z 00006KT M07/M14 A3038 RMK A01 T10711140  RH  058%=      5-min Rain = 0
KPD2 141313Z 36005KT M07/M14 A3038 RMK A01 T10701140  RH  058%=      5-min Rain = 0
KPD2 141314Z 35004KT M07/M14 A3037 RMK A01 T10691139  RH  057%=      5-min Rain = 0
KPD2 141315Z 00005KT M07/M14 A3037 RMK A01 T10681139  RH  057%=      5-min Rain = 0
KPD2 141316Z 35006KT M07/M14 A3037 RMK A01 T10671138  RH  057%=      5-min Rain = 0
KPD2 141317Z 01005KT M07/M14 A3037 RMK A01 T10661138  RH  057%=      5-min Rain = 0
KPD2 141318Z 00005KT M07/M14 A3037 RMK A01 T10651137  RH  057%=      5-min Rain = 0
KPD2 141319Z 35004KT M07/M14 A3037 RMK A01 T10651138  RH  056%=      5-min Rain = 0
KPD2 141320Z 35004KT M06/M14 A3037 RMK A01 T10641137  RH  056%=      5-min Rain = 0
KPD2 141321Z 33005KT M06/M14 A3038 RMK A01 T10631137  RH  056%=      5-min Rain = 0
KPD2 141322Z 34004KT M06/M14 A3038 RMK A01 T10621137  RH  056%=      5-min Rain = 0
KPD2 141323Z 34004KT M06/M14 A3038 RMK A01 T10621137  RH  055%=      5-min Rain = 0
KPD2 141324Z 36005KT M06/M14 A3037 RMK A01 T10631138  RH  055%=      5-min Rain = 0
KPD2 141325Z 34005KT M06/M14 A3038 RMK A01 T10631138  RH  055%=      5-min Rain = 0
KPD2 141326Z 33004KT M06/M14 A3038 RMK A01 T10631139  RH  055%=      5-min Rain = 0
KPD2 141327Z 32004KT M06/M14 A3037 RMK A01 T10641139  RH  055%=      5-min Rain = 0
KPD2 141328Z 32003KT M06/M14 A3038 RMK A01 T10641139  RH  055%=      5-min Rain = 0
KPD2 141329Z 30004KT M06/M14 A3038 RMK A01 T10631139  RH  055%=      5-min Rain = 0
KPD2 141330Z 31003KT M06/M14 A3038 RMK A01 T10631138  RH  055%=      5-min Rain = 0
KPD2 141331Z 31003KT M06/M14 A3038 RMK A01 T10621138  RH  055%=      5-min Rain = 0
KPD2 141332Z 30004KT M06/M14 A3038 RMK A01 T10621138  RH  055%=      5-min Rain = 0
KPD2 141333Z 31004KT M06/M14 A3038 RMK A01 T10621138  RH  055%=      5-min Rain = 0
KPD2 141334Z 31004KT M06/M14 A3038 RMK A01 T10631139  RH  055%=      5-min Rain = 0
KPD2 141335Z 33003KT M06/M14 A3038 RMK A01 T10631139  RH  055%=      5-min Rain = 0
KPD2 141336Z 35003KT M07/M14 A3038 RMK A01 T10651140  RH  055%=      5-min Rain = 0
KPD2 141337Z 35003KT M07/M14 A3038 RMK A01 T10661141  RH  055%=      5-min Rain = 0
KPD2 141338Z 35004KT M07/M14 A3038 RMK A01 T10661140  RH  055%=      5-min Rain = 0
KPD2 141339Z 35004KT M07/M14 A3038 RMK A01 T10661140  RH  055%=      5-min Rain = 0
KPD2 141340Z 34003KT M07/M14 A3038 RMK A01 T10661140  RH  055%=      5-min Rain = 0
KPD2 141341Z 34004KT M07/M14 A3038 RMK A01 T10661140  RH  056%=      5-min Rain = 0
KPD2 141342Z 33004KT M07/M14 A3038 RMK A01 T10661140  RH  056%=      5-min Rain = 0
KPD2 141343Z 32004KT M07/M14 A3038 RMK A01 T10651140  RH  055%=      5-min Rain = 0
KPD2 141344Z 31005KT M07/M14 A3038 RMK A01 T10651139  RH  055%=      5-min Rain = 0
KPD2 141345Z 30004KT M06/M14 A3039 RMK A01 T10641139  RH  055%=      5-min Rain = 0
KPD2 141346Z 30004KT M06/M14 A3039 RMK A01 T10641139  RH  055%=      5-min Rain = 0
KPD2 141347Z 30005KT M06/M14 A3039 RMK A01 T10621138  RH  055%=      5-min Rain = 0
KPD2 141348Z 29004KT M06/M14 A3039 RMK A01 T10611138  RH  055%=      5-min Rain = 0
KPD2 141349Z 29004KT M06/M14 A3039 RMK A01 T10621138  RH  055%=      5-min Rain = 0
KPD2 141350Z 28004KT M06/M14 A3039 RMK A01 T10611138  RH  055%=      5-min Rain = 0
KPD2 141351Z 28004KT M06/M14 A3039 RMK A01 T10611138  RH  055%=      5-min Rain = 0
KPD2 141352Z 28004KT M06/M14 A3039 RMK A01 T10611137  RH  055%=      5-min Rain = 0
KPD2 141353Z 28004KT M06/M14 A3039 RMK A01 T10611137  RH  055%=      5-min Rain = 0
KPD2 141354Z 28004KT M06/M14 A3039 RMK A01 T10611137  RH  055%=      5-min Rain = 0
KPD2 141355Z 28004KT M06/M14 A3039 RMK A01 T10621138  RH  055%=      5-min Rain = 0
KPD2 141356Z 28003KT M06/M14 A3039 RMK A01 T10631138  RH  055%=      5-min Rain = 0
KPD2 141357Z 29002KT M06/M14 A3039 RMK A01 T10641139  RH  055%=      5-min Rain = 0
KPD2 141358Z 31002KT M07/M14 A3039 RMK A01 T10651139  RH  055%=      5-min Rain = 0
KPD2 141359Z 32002KT M07/M14 A3039 RMK A01 T10661139  RH  056%=      5-min Rain = 0
KPD2 141400Z 31002KT M07/M14 A3039 RMK A01 T10661139  RH  056%=      5-min Rain = 0
KPD2 141401Z 31002KT M07/M14 A3039 RMK A01 T10661139  RH  056%=      5-min Rain = 0
KPD2 141402Z 32002KT M07/M14 A3039 RMK A01 T10671139  RH  056%=      5-min Rain = 0
KPD2 141403Z 32003KT M07/M14 A3039 RMK A01 T10671139  RH  057%=      5-min Rain = 0
KPD2 141404Z 33003KT M07/M14 A3039 RMK A01 T10671139  RH  057%=      5-min Rain = 0
KPD2 141405Z 34003KT M07/M14 A3039 RMK A01 T10671139  RH  057%=      5-min Rain = 0
KPD2 141406Z 34004KT M07/M14 A3039 RMK A01 T10681139  RH  057%=      5-min Rain = 0
KPD2 141407Z 34004KT M07/M14 A3039 RMK A01 T10681139  RH  057%=      5-min Rain = 0
KPD2 141408Z 33004KT M07/M14 A3039 RMK A01 T10681139  RH  057%=      5-min Rain = 0
KPD2 141409Z 32006KT M07/M14 A3039 RMK A01 T10681138  RH  057%=      5-min Rain = 0
KPD2 141410Z 33005KT M07/M14 A3039 RMK A01 T10661137  RH  057%=      5-min Rain = 0
KPD2 141411Z 33005KT M07/M14 A3039 RMK A01 T10661137  RH  057%=      5-min Rain = 0
KPD2 141412Z 34005KT M06/M14 A3039 RMK A01 T10641136  RH  057%=      5-min Rain = 0
KPD2 141413Z 33005KT M06/M14 A3039 RMK A01 T10631136  RH  056%=      5-min Rain = 0
KPD2 141414Z 32005KT M06/M14 A3039 RMK A01 T10621135  RH  056%=      5-min Rain = 0
KPD2 141415Z 33005KT M06/M14 A3039 RMK A01 T10601135  RH  055%=      5-min Rain = 0
KPD2 141416Z 33005KT M06/M14 A3039 RMK A01 T10601136  RH  055%=      5-min Rain = 0
KPD2 141417Z 33005KT M06/M14 A3039 RMK A01 T10591135  RH  055%=      5-min Rain = 0
KPD2 141418Z 33004KT M06/M14 A3039 RMK A01 T10581135  RH  055%=      5-min Rain = 0
KPD2 141419Z 34004KT M06/M14 A3039 RMK A01 T10571135  RH  055%=      5-min Rain = 0
KPD2 141420Z 34004KT M06/M13 A3039 RMK A01 T10571134  RH  054%=      5-min Rain = 0
KPD2 141421Z 34005KT M06/M14 A3039 RMK A01 T10561135  RH  054%=      5-min Rain = 0
KPD2 141422Z 33005KT M06/M13 A3039 RMK A01 T10551134  RH  054%=      5-min Rain = 0
KPD2 141423Z 34004KT M05/M13 A3039 RMK A01 T10541133  RH  054%=      5-min Rain = 0
KPD2 141424Z 34004KT M05/M13 A3039 RMK A01 T10531133  RH  053%=      5-min Rain = 0
KPD2 141425Z 34004KT M05/M13 A3039 RMK A01 T10531133  RH  053%=      5-min Rain = 0
KPD2 141426Z 34004KT M05/M13 A3039 RMK A01 T10531134  RH  053%=      5-min Rain = 0
KPD2 141427Z 34005KT M05/M13 A304 RMK A01 T10521134  RH  053%=      5-min Rain = 0
KPD2 141428Z 33004KT M05/M13 A304 RMK A01 T10521133  RH  053%=      5-min Rain = 0
KPD2 141429Z 33005KT M05/M13 A304 RMK A01 T10511133  RH  052%=      5-min Rain = 0
KPD2 141430Z 33004KT M05/M13 A304 RMK A01 T10511134  RH  052%=      5-min Rain = 0
KPD2 141431Z 33004KT M05/M13 A304 RMK A01 T10511134  RH  052%=      5-min Rain = 0
KPD2 141432Z 33005KT M05/M13 A304 RMK A01 T10501133  RH  052%=      5-min Rain = 0
KPD2 141433Z 34004KT M05/M13 A304 RMK A01 T10501133  RH  052%=      5-min Rain = 0
KPD2 141434Z 34004KT M05/M13 A304 RMK A01 T10501133  RH  052%=      5-min Rain = 0
KPD2 141435Z 34005KT M05/M13 A304 RMK A01 T10491133  RH  052%=      5-min Rain = 0
KPD2 141436Z 33006KT M05/M13 A304 RMK A01 T10481132  RH  052%=      5-min Rain = 0
KPD2 141437Z 34005KT M05/M13 A304 RMK A01 T10481132  RH  052%=      5-min Rain = 0
KPD2 141438Z 34004KT M05/M13 A304 RMK A01 T10471131  RH  052%=      5-min Rain = 0
KPD2 141439Z 34005KT M05/M13 A304 RMK A01 T10461131  RH  052%=      5-min Rain = 0
KPD2 141440Z 34005KT M05/M13 A304 RMK A01 T10461131  RH  051%=      5-min Rain = 0
KPD2 141441Z 33005KT M05/M13 A304 RMK A01 T10451131  RH  051%=      5-min Rain = 0
KPD2 141442Z 35005KT M04/M13 A304 RMK A01 T10441131  RH  051%=      5-min Rain = 0
KPD2 141443Z 34004KT M04/M13 A304 RMK A01 T10441131  RH  051%=      5-min Rain = 0
KPD2 141444Z 35004KT M04/M13 A304 RMK A01 T10431131  RH  051%=      5-min Rain = 0
KPD2 141445Z 34004KT M04/M13 A304 RMK A01 T10431131  RH  050%=      5-min Rain = 0
KPD2 141446Z 34004KT M04/M13 A304 RMK A01 T10421131  RH  050%=      5-min Rain = 0
KPD2 141447Z 34005KT M04/M13 A304 RMK A01 T10421130  RH  050%=      5-min Rain = 0
KPD2 141448Z 34005KT M04/M13 A304 RMK A01 T10411131  RH  050%=      5-min Rain = 0
KPD2 141449Z 35006KT M04/M13 A3041 RMK A01 T10411130  RH  050%=      5-min Rain = 0
KPD2 141450Z 35005KT M04/M13 A3041 RMK A01 T10401130  RH  050%=      5-min Rain = 0
KPD2 141451Z 35005KT M04/M13 A3041 RMK A01 T10401130  RH  050%=      5-min Rain = 0
KPD2 141452Z 35005KT M04/M13 A3041 RMK A01 T10391130  RH  049%=      5-min Rain = 0
KPD2 141453Z 35006KT M04/M13 A3041 RMK A01 T10391130  RH  049%=      5-min Rain = 0
KPD2 141454Z 34006KT M04/M13 A3041 RMK A01 T10391130  RH  049%=      5-min Rain = 0
KPD2 141455Z 35006KT M04/M13 A3041 RMK A01 T10381129  RH  049%=      5-min Rain = 0
KPD2 141456Z 34005KT M04/M13 A3041 RMK A01 T10371129  RH  049%=      5-min Rain = 0
KPD2 141457Z 34005KT M04/M13 A3041 RMK A01 T10371129  RH  049%=      5-min Rain = 0
KPD2 141458Z 34006KT M04/M13 A3041 RMK A01 T10371129  RH  049%=      5-min Rain = 0
KPD2 141459Z 34005KT M04/M13 A3041 RMK A01 T10361129  RH  048%=      5-min Rain = 0
KPD2 141500Z 35005KT M04/M13 A3041 RMK A01 T10361129  RH  048%=      5-min Rain = 0
KPD2 141501Z 35006KT M04/M13 A3041 RMK A01 T10351129  RH  048%=      5-min Rain = 0
KPD2 141502Z 35005KT M03/M13 A3041 RMK A01 T10341128  RH  048%=      5-min Rain = 0
KPD2 141503Z 34005KT M03/M13 A3041 RMK A01 T10341129  RH  048%=      5-min Rain = 0
KPD2 141504Z 35005KT M03/M13 A3041 RMK A01 T10341129  RH  048%=      5-min Rain = 0
KPD2 141505Z 35005KT M03/M13 A3041 RMK A01 T10331129  RH  048%=      5-min Rain = 0
KPD2 141506Z 35007KT M03/M13 A3041 RMK A01 T10321128  RH  048%=      5-min Rain = 0
KPD2 141507Z 34006KT M03/M13 A3042 RMK A01 T10311128  RH  047%=      5-min Rain = 0
KPD2 141508Z 35007KT M03/M13 A3042 RMK A01 T10311128  RH  047%=      5-min Rain = 0
KPD2 141509Z 35006KT M03/M13 A3042 RMK A01 T10311128  RH  047%=      5-min Rain = 0
KPD2 141510Z 35006KT M03/M13 A3042 RMK A01 T10301127  RH  047%=      5-min Rain = 0
KPD2 141511Z 34007KT M03/M13 A3042 RMK A01 T10291127  RH  047%=      5-min Rain = 0
KPD2 141512Z 36005KT M03/M13 A3042 RMK A01 T10291126  RH  047%=      5-min Rain = 0
KPD2 141513Z 35005KT M03/M13 A3041 RMK A01 T10281125  RH  047%=      5-min Rain = 0
KPD2 141514Z 36005KT M03/M13 A3041 RMK A01 T10271125  RH  047%=      5-min Rain = 0
KPD2 141515Z 35005KT M03/M12 A3041 RMK A01 T10261124  RH  047%=      5-min Rain = 0
KPD2 141516Z 00005KT M03/M12 A3041 RMK A01 T10251124  RH  046%=      5-min Rain = 0
KPD2 141517Z 36004KT M02/M12 A3041 RMK A01 T10241124  RH  046%=      5-min Rain = 0
KPD2 141518Z 00004KT M02/M12 A3041 RMK A01 T10221123  RH  046%=      5-min Rain = 0
KPD2 141519Z 00004KT M02/M12 A3041 RMK A01 T10221123  RH  046%=      5-min Rain = 0
KPD2 141520Z 35005KT M02/M12 A3041 RMK A01 T10211123  RH  045%=      5-min Rain = 0
KPD2 141521Z 02005KT M02/M12 A3041 RMK A01 T10201123  RH  045%=      5-min Rain = 0
KPD2 141522Z 35005KT M02/M12 A3041 RMK A01 T10191123  RH  045%=      5-min Rain = 0
KPD2 141523Z 36004KT M02/M12 A3042 RMK A01 T10191122  RH  045%=      5-min Rain = 0
KPD2 141524Z 35004KT M02/M12 A3042 RMK A01 T10171120  RH  045%=      5-min Rain = 0
KPD2 141525Z 34003KT M02/M12 A3042 RMK A01 T10161120  RH  045%=      5-min Rain = 0
KPD2 141526Z 00003KT M01/M12 A3042 RMK A01 T10141118  RH  045%=      5-min Rain = 0
KPD2 141527Z 01003KT M01/M12 A3042 RMK A01 T10131118  RH  045%=      5-min Rain = 0
KPD2 141528Z 01004KT M01/M12 A3042 RMK A01 T10121118  RH  044%=      5-min Rain = 0
KPD2 141529Z 02003KT M01/M12 A3042 RMK A01 T10111119  RH  044%=      5-min Rain = 0
KPD2 141530Z 02002KT M01/M12 A3042 RMK A01 T10111118  RH  044%=      5-min Rain = 0
KPD2 141531Z 02003KT M01/M12 A3042 RMK A01 T10101118  RH  044%=      5-min Rain = 0
KPD2 141532Z 03004KT M01/M12 A3042 RMK A01 T10091117  RH  044%=      5-min Rain = 0
KPD2 141533Z 03003KT M01/M12 A3042 RMK A01 T10091117  RH  044%=      5-min Rain = 0
KPD2 141534Z 03004KT M01/M11 A3042 RMK A01 T10081114  RH  044%=      5-min Rain = 0
KPD2 141535Z 04003KT M01/M11 A3042 RMK A01 T10061113  RH  044%=      5-min Rain = 0
KPD2 141536Z 01003KT M01/M11 A3041 RMK A01 T10051113  RH  044%=      5-min Rain = 0
KPD2 141537Z 02003KT M00/M11 A3041 RMK A01 T10041113  RH  044%=      5-min Rain = 0
KPD2 141538Z 02003KT M00/M11 A3042 RMK A01 T10041114  RH  043%=      5-min Rain = 0
KPD2 141539Z 35003KT M00/M11 A3042 RMK A01 T10021112  RH  043%=      5-min Rain = 0
KPD2 141540Z 36003KT 00/M11 A3042 RMK A01 T00011109  RH  043%=      5-min Rain = 0
KPD2 141541Z 00003KT 00/M11 A3042 RMK A01 T00021107  RH  044%=      5-min Rain = 0
KPD2 141542Z 34004KT 01/M11 A3042 RMK A01 T00051106  RH  043%=      5-min Rain = 0
KPD2 141543Z 33003KT 01/M11 A3042 RMK A01 T00051105  RH  043%=      5-min Rain = 0
KPD2 141544Z 32005KT 01/M10 A3042 RMK A01 T00061104  RH  044%=      5-min Rain = 0
KPD2 141545Z 32005KT 01/M10 A3042 RMK A01 T00071102  RH  044%=      5-min Rain = 0
KPD2 141546Z 33005KT 01/M10 A3042 RMK A01 T00081102  RH  043%=      5-min Rain = 0
KPD2 141547Z 33004KT 01/M10 A3042 RMK A01 T00081103  RH  043%=      5-min Rain = 0
KPD2 141548Z 31003KT 01/M10 A3042 RMK A01 T00091101  RH  043%=      5-min Rain = 0
KPD2 141549Z 34004KT 01/M10 A3042 RMK A01 T00121100  RH  043%=      5-min Rain = 0
KPD2 141550Z 34004KT 01/M10 A3042 RMK A01 T00131101  RH  042%=      5-min Rain = 0
KPD2 141551Z 31003KT 01/M10 A3042 RMK A01 T00141102  RH  042%=      5-min Rain = 0
KPD2 141552Z 29002KT 01/M10 A3042 RMK A01 T00131102  RH  042%=      5-min Rain = 0
KPD2 141553Z 34002KT 01/M10 A3042 RMK A01 T00141102  RH  042%=      5-min Rain = 0
KPD2 141554Z 34002KT 02/M10 A3043 RMK A01 T00151102  RH  041%=      5-min Rain = 0
KPD2 141555Z 31002KT 02/M10 A3043 RMK A01 T00161102  RH  041%=      5-min Rain = 0
KPD2 141556Z 32003KT 02/M10 A3043 RMK A01 T00161102  RH  041%=      5-min Rain = 0
KPD2 141557Z 29003KT 02/M10 A3043 RMK A01 T00171100  RH  041%=      5-min Rain = 0
KPD2 141558Z 29004KT 02/M10 A3043 RMK A01 T00181099  RH  041%=      5-min Rain = 0
KPD2 141559Z 29006KT 02/M10 A3043 RMK A01 T00181099  RH  041%=      5-min Rain = 0
KPD2 141600Z 28004KT 02/M10 A3043 RMK A01 T00181099  RH  042%=      5-min Rain = 0
KPD2 141601Z 28004KT 02/M10 A3043 RMK A01 T00171099  RH  042%=      5-min Rain = 0
KPD2 141602Z 26003KT 02/M10 A3043 RMK A01 T00171098  RH  042%=      5-min Rain = 0
KPD2 141603Z 30003KT 02/M10 A3043 RMK A01 T00181097  RH  042%=      5-min Rain = 0
KPD2 141604Z 29003KT 02/M10 A3043 RMK A01 T00191096  RH  042%=      5-min Rain = 0
KPD2 141605Z 28002KT 02/M10 A3043 RMK A01 T00211095  RH  042%=      5-min Rain = 0
KPD2 141606Z 27004KT 02/M09 A3042 RMK A01 T00221094  RH  042%=      5-min Rain = 0
KPD2 141607Z 27005KT 02/M10 A3042 RMK A01 T00221095  RH  042%=      5-min Rain = 0
KPD2 141608Z 25002KT 02/M10 A3042 RMK A01 T00221095  RH  042%=      5-min Rain = 0
KPD2 141609Z 27003KT 02/M09 A3042 RMK A01 T00221094  RH  042%=      5-min Rain = 0
KPD2 141610Z 25004KT 02/M09 A3042 RMK A01 T00241092  RH  042%=      5-min Rain = 0
KPD2 141611Z 22003KT 03/M09 A3042 RMK A01 T00251092  RH  042%=      5-min Rain = 0
KPD2 141612Z 29003KT 03/M09 A3042 RMK A01 T00261091  RH  042%=      5-min Rain = 0
KPD2 141613Z 28003KT 03/M09 A3042 RMK A01 T00271091  RH  041%=      5-min Rain = 0
KPD2 141614Z 28002KT 03/M09 A3042 RMK A01 T00281092  RH  041%=      5-min Rain = 0
KPD2 141615Z 27003KT 03/M09 A3042 RMK A01 T00291091  RH  041%=      5-min Rain = 0
KPD2 141616Z 27002KT 03/M09 A3042 RMK A01 T00311089  RH  041%=      5-min Rain = 0
KPD2 141617Z 29003KT 03/M09 A3042 RMK A01 T00331089  RH  040%=      5-min Rain = 0
KPD2 141618Z 26003KT 03/M09 A3042 RMK A01 T00331089  RH  040%=      5-min Rain = 0
KPD2 141619Z 29004KT 04/M09 A3042 RMK A01 T00351088  RH  040%=      5-min Rain = 0
KPD2 141620Z 29004KT 04/M09 A3042 RMK A01 T00361088  RH  040%=      5-min Rain = 0
KPD2 141621Z 29003KT 04/M09 A3042 RMK A01 T00371089  RH  039%=      5-min Rain = 0
KPD2 141622Z 31005KT 04/M09 A3042 RMK A01 T00371089  RH  039%=      5-min Rain = 0
KPD2 141623Z 27004KT 04/M09 A3042 RMK A01 T00371089  RH  039%=      5-min Rain = 0
KPD2 141624Z 28004KT 04/M09 A3043 RMK A01 T00371090  RH  039%=      5-min Rain = 0
KPD2 141625Z 27004KT 04/M09 A3043 RMK A01 T00371089  RH  039%=      5-min Rain = 0
KPD2 141626Z 26004KT 04/M09 A3043 RMK A01 T00371089  RH  039%=      5-min Rain = 0
KPD2 141627Z 28004KT 04/M09 A3043 RMK A01 T00371089  RH  039%=      5-min Rain = 0
KPD2 141628Z 27003KT 04/M09 A3043 RMK A01 T00391088  RH  039%=      5-min Rain = 0
KPD2 141629Z 29003KT 04/M09 A3043 RMK A01 T00401087  RH  039%=      5-min Rain = 0
KPD2 141630Z 31003KT 04/M09 A3043 RMK A01 T00411088  RH  039%=      5-min Rain = 0
KPD2 141631Z 32001KT 04/M09 A3043 RMK A01 T00411088  RH  038%=      5-min Rain = 0
KPD2 141632Z 33001KT 04/M09 A3043 RMK A01 T00411088  RH  038%=      5-min Rain = 0
KPD2 141633Z 27003KT 04/M09 A3043 RMK A01 T00431087  RH  038%=      5-min Rain = 0
KPD2 141634Z 29003KT 05/M09 A3043 RMK A01 T00461085  RH  038%=      5-min Rain = 0
KPD2 141635Z 30003KT 05/M09 A3043 RMK A01 T00491085  RH  037%=      5-min Rain = 0
KPD2 141636Z 28002KT 05/M09 A3043 RMK A01 T00491087  RH  037%=      5-min Rain = 0
KPD2 141637Z 28003KT 05/M09 A3043 RMK A01 T00491087  RH  037%=      5-min Rain = 0
KPD2 141638Z 28003KT 05/M09 A3043 RMK A01 T00481086  RH  037%=      5-min Rain = 0
KPD2 141639Z 27003KT 05/M09 A3043 RMK A01 T00481086  RH  037%=      5-min Rain = 0
KPD2 141640Z 25002KT 05/M09 A3043 RMK A01 T00481086  RH  037%=      5-min Rain = 0
KPD2 141641Z 21001KT 05/M09 A3043 RMK A01 T00481086  RH  037%=      5-min Rain = 0
KPD2 141642Z 29001KT 05/M08 A3043 RMK A01 T00501083  RH  037%=      5-min Rain = 0
KPD2 141643Z 31001KT 05/M08 A3043 RMK A01 T00531083  RH  037%=      5-min Rain = 0
KPD2 141644Z 24002KT 06/M08 A3043 RMK A01 T00551082  RH  037%=      5-min Rain = 0
KPD2 141645Z 25002KT 06/M08 A3043 RMK A01 T00571082  RH  036%=      5-min Rain = 0
KPD2 141646Z 24001KT 06/M08 A3043 RMK A01 T00571083  RH  036%=      5-min Rain = 0
KPD2 141647Z 26003KT 06/M08 A3043 RMK A01 T00591082  RH  036%=      5-min Rain = 0
KPD2 141648Z 28001KT 06/M08 A3043 RMK A01 T00611080  RH  036%=      5-min Rain = 0
KPD2 141649Z 09000KT 06/M08 A3043 RMK A01 T00621080  RH  035%=      5-min Rain = 0
KPD2 141650Z 10002KT 06/M08 A3043 RMK A01 T00631080  RH  035%=      5-min Rain = 0
KPD2 141651Z 08003KT 06/M08 A3043 RMK A01 T00641081  RH  035%=      5-min Rain = 0
KPD2 141652Z 04003KT 07/M08 A3043 RMK A01 T00661080  RH  035%=      5-min Rain = 0
KPD2 141653Z 00002KT 07/M08 A3043 RMK A01 T00671078  RH  035%=      5-min Rain = 0
KPD2 141654Z 29001KT 07/M08 A3043 RMK A01 T00681076  RH  035%=      5-min Rain = 0
KPD2 141655Z 25002KT 07/M08 A3043 RMK A01 T00681075  RH  035%=      5-min Rain = 0
KPD2 141656Z 28002KT 07/M07 A3043 RMK A01 T00691073  RH  036%=      5-min Rain = 0
KPD2 141657Z 32004KT 07/M07 A3043 RMK A01 T00701070  RH  036%=      5-min Rain = 0
KPD2 141658Z 31006KT 07/M07 A3043 RMK A01 T00731066  RH  037%=      5-min Rain = 0
KPD2 141659Z 34006KT 07/M06 A3043 RMK A01 T00741064  RH  037%=      5-min Rain = 0
KPD2 141700Z 33001KT 08/M06 A3043 RMK A01 T00751063  RH  037%=      5-min Rain = 0
KPD2 141701Z 33004KT 08/M06 A3043 RMK A01 T00761063  RH  037%=      5-min Rain = 0
KPD2 141702Z 34005KT 08/M06 A3043 RMK A01 T00791060  RH  037%=      5-min Rain = 0
KPD2 141703Z 36002KT 08/M06 A3043 RMK A01 T00811059  RH  036%=      5-min Rain = 0
KPD2 141704Z 25001KT 08/M06 A3043 RMK A01 T00831059  RH  036%=      5-min Rain = 0
KPD2 141705Z 27001KT 08/M06 A3043 RMK A01 T00841060  RH  036%=      5-min Rain = 0
KPD2 141706Z 32003KT 09/M06 A3043 RMK A01 T00861059  RH  035%=      5-min Rain = 0
KPD2 141707Z 34004KT 09/M06 A3043 RMK A01 T00871057  RH  036%=      5-min Rain = 0
KPD2 141708Z 34003KT 09/M06 A3043 RMK A01 T00891055  RH  036%=      5-min Rain = 0
KPD2 141709Z 29002KT 09/M06 A3043 RMK A01 T00881055  RH  036%=      5-min Rain = 0
KPD2 141710Z 16001KT 09/M05 A3043 RMK A01 T00881052  RH  037%=      5-min Rain = 0
KPD2 141711Z 00003KT 09/M05 A3043 RMK A01 T00901050  RH  037%=      5-min Rain = 0
KPD2 141712Z 32004KT 09/M05 A3043 RMK A01 T00921050  RH  036%=      5-min Rain = 0
KPD2 141713Z 33006KT 10/M05 A3043 RMK A01 T00951050  RH  036%=      5-min Rain = 0
KPD2 141714Z 36003KT 10/M05 A3043 RMK A01 T00971047  RH  036%=      5-min Rain = 0
KPD2 141715Z 26002KT 09/M05 A3042 RMK A01 T00941049  RH  036%=      5-min Rain = 0
KPD2 141716Z 26002KT 09/M05 A3042 RMK A01 T00911048  RH  037%=      5-min Rain = 0
KPD2 141717Z 32005KT 09/M05 A3042 RMK A01 T00931046  RH  037%=      5-min Rain = 0
KPD2 141718Z 34006KT 09/M05 A3042 RMK A01 T00931045  RH  037%=      5-min Rain = 0
KPD2 141719Z 33005KT 09/M04 A3042 RMK A01 T00941044  RH  037%=      5-min Rain = 0
KPD2 141720Z 33005KT 10/M04 A3042 RMK A01 T00951043  RH  038%=      5-min Rain = 0
KPD2 141721Z 03004KT 10/M04 A3042 RMK A01 T00971041  RH  038%=      5-min Rain = 0
KPD2 141722Z 26001KT 10/M04 A3042 RMK A01 T00971041  RH  037%=      5-min Rain = 0
KPD2 141723Z 31005KT 10/M04 A3042 RMK A01 T00961041  RH  038%=      5-min Rain = 0
KPD2 141724Z 33004KT 10/M04 A3042 RMK A01 T00951040  RH  038%=      5-min Rain = 0
KPD2 141725Z 33005KT 10/M04 A3042 RMK A01 T00951040  RH  038%=      5-min Rain = 0
KPD2 141726Z 33005KT 10/M04 A3042 RMK A01 T00971038  RH  038%=      5-min Rain = 0
KPD2 141727Z 04004KT 10/M04 A3042 RMK A01 T01011036  RH  038%=      5-min Rain = 0
KPD2 141728Z 07006KT 11/M04 A3042 RMK A01 T01051036  RH  037%=      5-min Rain = 0
KPD2 141729Z 07006KT 10/M04 A3042 RMK A01 T01041038  RH  037%=      5-min Rain = 0
KPD2 141730Z 06006KT 10/M04 A3042 RMK A01 T00991040  RH  037%=      5-min Rain = 0
KPD2 141731Z 00002KT 10/M04 A3042 RMK A01 T00991038  RH  038%=      5-min Rain = 0
KPD2 141732Z 14001KT 10/M04 A3042 RMK A01 T01011037  RH  038%=      5-min Rain = 0
KPD2 141733Z 32001KT 10/M04 A3042 RMK A01 T01031037  RH  037%=      5-min Rain = 0
KPD2 141734Z 29002KT 10/M04 A3042 RMK A01 T01031037  RH  037%=      5-min Rain = 0
KPD2 141735Z 36002KT 10/M04 A3042 RMK A01 T01031037  RH  037%=      5-min Rain = 0
KPD2 141736Z 28000KT 10/M04 A3042 RMK A01 T01031036  RH  037%=      5-min Rain = 0
KPD2 141737Z 18001KT 11/M04 A3042 RMK A01 T01061035  RH  037%=      5-min Rain = 0
KPD2 141738Z 17002KT 11/M04 A3042 RMK A01 T01091035  RH  036%=      5-min Rain = 0
KPD2 141739Z 22003KT 11/M04 A3042 RMK A01 T01101036  RH  036%=      5-min Rain = 0
KPD2 141740Z 20003KT 11/M04 A3042 RMK A01 T01081037  RH  036%=      5-min Rain = 0
KPD2 141741Z 21002KT 11/M04 A3042 RMK A01 T01071037  RH  036%=      5-min Rain = 0
KPD2 141742Z 19002KT 11/M04 A3042 RMK A01 T01071036  RH  037%=      5-min Rain = 0
KPD2 141743Z 19003KT 11/M04 A3042 RMK A01 T01081035  RH  036%=      5-min Rain = 0
KPD2 141744Z 15003KT 11/M04 A3042 RMK A01 T01101035  RH  036%=      5-min Rain = 0
KPD2 141745Z 19001KT 11/M04 A3042 RMK A01 T01101035  RH  036%=      5-min Rain = 0
KPD2 141746Z 29001KT 11/M04 A3041 RMK A01 T01101035  RH  036%=      5-min Rain = 0
KPD2 141747Z 18002KT 11/M04 A3041 RMK A01 T01111035  RH  036%=      5-min Rain = 0
KPD2 141748Z 20002KT 11/M04 A3041 RMK A01 T01121035  RH  036%=      5-min Rain = 0
KPD2 141749Z 16005G10KT 11/M04 A3041 RMK A01 T01111035  RH  036%=      5-min Rain = 0
KPD2 141750Z 17005KT 11/M04 A3041 RMK A01 T01101035  RH  036%=      5-min Rain = 0
KPD2 141751Z 03005KT 11/M03 A3041 RMK A01 T01111034  RH  036%=      5-min Rain = 0
KPD2 141752Z 31003KT 12/M03 A3041 RMK A01 T01171030  RH  036%=      5-min Rain = 0
KPD2 141753Z 27003KT 12/M03 A3041 RMK A01 T01211032  RH  034%=      5-min Rain = 0
KPD2 141754Z 32001KT 12/M04 A3041 RMK A01 T01171036  RH  034%=      5-min Rain = 0
KPD2 141755Z 20001KT 12/M04 A3041 RMK A01 T01161035  RH  035%=      5-min Rain = 0
KPD2 141756Z 12002KT 12/M03 A3041 RMK A01 T01171033  RH  035%=      5-min Rain = 0
KPD2 141757Z 14003KT 12/M03 A3041 RMK A01 T01191032  RH  035%=      5-min Rain = 0
KPD2 141758Z 11003KT 12/M03 A3041 RMK A01 T01191033  RH  034%=      5-min Rain = 0
KPD2 141759Z 12005KT 12/M03 A304 RMK A01 T01181034  RH  034%=      5-min Rain = 0
KPD2 141800Z 16004KT 12/M03 A304 RMK A01 T01191032  RH  035%=      5-min Rain = 0
KPD2 141801Z 30004KT 12/M03 A304 RMK A01 T01211032  RH  034%=      5-min Rain = 0
KPD2 141802Z 30002KT 12/M03 A304 RMK A01 T01201034  RH  034%=      5-min Rain = 0
KPD2 141803Z 28001KT 12/M03 A304 RMK A01 T01191033  RH  034%=      5-min Rain = 0
KPD2 141804Z 15003G8KT 12/M03 A304 RMK A01 T01211032  RH  034%=      5-min Rain = 0
KPD2 141805Z 17004KT 12/M03 A304 RMK A01 T01211033  RH  034%=      5-min Rain = 0
KPD2 141806Z 03002KT 12/M03 A304 RMK A01 T01181034  RH  034%=      5-min Rain = 0
KPD2 141807Z 04006KT 12/M03 A304 RMK A01 T01191032  RH  035%=      5-min Rain = 0
KPD2 141808Z 05003KT 12/M03 A304 RMK A01 T01191033  RH  034%=      5-min Rain = 0
KPD2 141809Z 36005KT 12/M03 A304 RMK A01 T01191033  RH  034%=      5-min Rain = 0
KPD2 141810Z 07005KT 12/M03 A3039 RMK A01 T01201033  RH  034%=      5-min Rain = 0
KPD2 141811Z 11005KT 12/M03 A3039 RMK A01 T01221032  RH  034%=      5-min Rain = 0
KPD2 141812Z 12004KT 12/M03 A3039 RMK A01 T01221032  RH  034%=      5-min Rain = 0
KPD2 141813Z 12008KT 12/M03 A3039 RMK A01 T01231031  RH  034%=      5-min Rain = 0
KPD2 141814Z 11006KT 12/M03 A3039 RMK A01 T01241032  RH  034%=      5-min Rain = 0
KPD2 141815Z 11004KT 12/M03 A3039 RMK A01 T01241032  RH  034%=      5-min Rain = 0
KPD2 141816Z 09006KT 13/M03 A3039 RMK A01 T01251031  RH  033%=      5-min Rain = 0
KPD2 141817Z 08003KT 13/M03 A3039 RMK A01 T01261031  RH  033%=      5-min Rain = 0
KPD2 141818Z 17003KT 13/M03 A3039 RMK A01 T01261032  RH  033%=      5-min Rain = 0
KPD2 141819Z 19002KT 13/M03 A3039 RMK A01 T01261031  RH  033%=      5-min Rain = 0
KPD2 141820Z 24001KT 13/M03 A3039 RMK A01 T01271030  RH  033%=      5-min Rain = 0
KPD2 141821Z 28003KT 13/M03 A3039 RMK A01 T01281031  RH  033%=      5-min Rain = 0
KPD2 141822Z 34007KT 13/M03 A3038 RMK A01 T01271032  RH  033%=      5-min Rain = 0
KPD2 141823Z 03005G11KT 13/M03 A3039 RMK A01 T01271030  RH  033%=      5-min Rain = 0
KPD2 141824Z 01004KT 13/M03 A3039 RMK A01 T01291031  RH  033%=      5-min Rain = 0
KPD2 141825Z 25001KT 13/M03 A3038 RMK A01 T01291032  RH  033%=      5-min Rain = 0
KPD2 141826Z 22002KT 13/M03 A3038 RMK A01 T01291031  RH  033%=      5-min Rain = 0
KPD2 141827Z 28000KT 13/M03 A3038 RMK A01 T01301031  RH  033%=      5-min Rain = 0
KPD2 141828Z 32002KT 13/M03 A3038 RMK A01 T01291031  RH  033%=      5-min Rain = 0
KPD2 141829Z 16001KT 13/M03 A3038 RMK A01 T01281032  RH  033%=      5-min Rain = 0
KPD2 141830Z 13000KT 13/M03 A3038 RMK A01 T01281031  RH  033%=      5-min Rain = 0
KPD2 141831Z 28003KT 13/M03 A3038 RMK A01 T01301030  RH  033%=      5-min Rain = 0
KPD2 141832Z 24003KT 13/M03 A3038 RMK A01 T01311030  RH  032%=      5-min Rain = 0
KPD2 141833Z 25003KT 13/M03 A3038 RMK A01 T01331029  RH  032%=      5-min Rain = 0
KPD2 141834Z 17003KT 14/M03 A3038 RMK A01 T01351030  RH  032%=      5-min Rain = 0
KPD2 141835Z 15004KT 13/M03 A3038 RMK A01 T01341030  RH  032%=      5-min Rain = 0
KPD2 141836Z 25002KT 13/M03 A3038 RMK A01 T01321031  RH  032%=      5-min Rain = 0
KPD2 141837Z 04002KT 13/M03 A3038 RMK A01 T01311031  RH  032%=      5-min Rain = 0
KPD2 141838Z 04004KT 13/M03 A3037 RMK A01 T01321031  RH  032%=      5-min Rain = 0
KPD2 141839Z 05004KT 13/M03 A3037 RMK A01 T01311032  RH  032%=      5-min Rain = 0
KPD2 141840Z 34006G11KT 13/M03 A3037 RMK A01 T01301032  RH  032%=      5-min Rain = 0
KPD2 141841Z 34009KT 13/M03 A3037 RMK A01 T01321030  RH  032%=      5-min Rain = 0
KPD2 141842Z 35009KT 13/M03 A3037 RMK A01 T01331031  RH  032%=      5-min Rain = 0
KPD2 141843Z 36005KT 14/M03 A3037 RMK A01 T01351029  RH  032%=      5-min Rain = 0
KPD2 141844Z 01008G13KT 14/M03 A3037 RMK A01 T01391028  RH  031%=      5-min Rain = 0
KPD2 141845Z 02005KT 14/M03 A3037 RMK A01 T01391030  RH  031%=      5-min Rain = 0
KPD2 141846Z 36004G9KT 14/M03 A3036 RMK A01 T01381031  RH  031%=      5-min Rain = 0
KPD2 141847Z 11004KT 14/M03 A3036 RMK A01 T01381031  RH  031%=      5-min Rain = 0
KPD2 141848Z 08007KT 14/M03 A3036 RMK A01 T01391031  RH  031%=      5-min Rain = 0
KPD2 141849Z 08005KT 14/M03 A3036 RMK A01 T01351033  RH  031%=      5-min Rain = 0
KPD2 141850Z 04005KT 13/M03 A3036 RMK A01 T01311033  RH  032%=      5-min Rain = 0
KPD2 141851Z 07002KT 13/M03 A3036 RMK A01 T01281033  RH  032%=      5-min Rain = 0
KPD2 141852Z 09005KT 13/M03 A3036 RMK A01 T01281033  RH  033%=      5-min Rain = 0
KPD2 141853Z 11007G13KT 13/M03 A3036 RMK A01 T01281032  RH  033%=      5-min Rain = 0
KPD2 141854Z 11006G12KT 13/M03 A3035 RMK A01 T01281032  RH  033%=      5-min Rain = 0
KPD2 141855Z 11005KT 13/M03 A3035 RMK A01 T01291032  RH  033%=      5-min Rain = 0
KPD2 141856Z 04004KT 13/M03 A3035 RMK A01 T01301032  RH  032%=      5-min Rain = 0
KPD2 141857Z 01003KT 13/M03 A3035 RMK A01 T01301032  RH  032%=      5-min Rain = 0
KPD2 141858Z 05004KT 13/M03 A3035 RMK A01 T01321031  RH  032%=      5-min Rain = 0
KPD2 141859Z 04005KT 13/M03 A3035 RMK A01 T01341031  RH  032%=      5-min Rain = 0
KPD2 141900Z 02005KT 13/M03 A3035 RMK A01 T01341031  RH  032%=      5-min Rain = 0
KPD2 141901Z 04003KT 14/M03 A3034 RMK A01 T01361031  RH  031%=      5-min Rain = 0
KPD2 141902Z 02003KT 14/M03 A3034 RMK A01 T01371030  RH  031%=      5-min Rain = 0
KPD2 141903Z 04004KT 14/M03 A3034 RMK A01 T01401030  RH  031%=      5-min Rain = 0
KPD2 141904Z 04006KT 14/M03 A3035 RMK A01 T01411030  RH  030%=      5-min Rain = 0
KPD2 141905Z 36006KT 14/M03 A3034 RMK A01 T01381033  RH  030%=      5-min Rain = 0
KPD2 141906Z 35005KT 14/M03 A3034 RMK A01 T01361034  RH  031%=      5-min Rain = 0
KPD2 141907Z 33004KT 14/M03 A3034 RMK A01 T01371033  RH  031%=      5-min Rain = 0
KPD2 141908Z 01005KT 14/M03 A3034 RMK A01 T01371032  RH  031%=      5-min Rain = 0
KPD2 141909Z 34005KT 14/M03 A3034 RMK A01 T01381032  RH  031%=      5-min Rain = 0
KPD2 141910Z 35005KT 14/M03 A3034 RMK A01 T01401031  RH  030%=      5-min Rain = 0
KPD2 141911Z 02003KT 14/M03 A3034 RMK A01 T01421031  RH  030%=      5-min Rain = 0
KPD2 141912Z 24001KT 14/M03 A3033 RMK A01 T01401034  RH  030%=      5-min Rain = 0
KPD2 141913Z 01001KT 14/M03 A3033 RMK A01 T01381034  RH  030%=      5-min Rain = 0
KPD2 141914Z 10002KT 14/M03 A3033 RMK A01 T01391031  RH  031%=      5-min Rain = 0
KPD2 141915Z 04003KT 14/M03 A3033 RMK A01 T01431030  RH  030%=      5-min Rain = 0
KPD2 141916Z 06002KT 15/M03 A3033 RMK A01 T01451031  RH  029%=      5-min Rain = 0
KPD2 141917Z 35004KT 15/M03 A3033 RMK A01 T01451032  RH  029%=      5-min Rain = 0
KPD2 141918Z 01003G8KT 15/M03 A3033 RMK A01 T01451032  RH  029%=      5-min Rain = 0
KPD2 141919Z 35006KT 15/M03 A3033 RMK A01 T01471031  RH  029%=      5-min Rain = 0
KPD2 141920Z 35006KT 15/M03 A3033 RMK A01 T01461032  RH  029%=      5-min Rain = 0
KPD2 141921Z 08004KT 14/M03 A3033 RMK A01 T01441033  RH  029%=      5-min Rain = 0
KPD2 141922Z 11003KT 14/M03 A3033 RMK A01 T01431033  RH  029%=      5-min Rain = 0
KPD2 141923Z 12002KT 14/M03 A3032 RMK A01 T01421032  RH  030%=      5-min Rain = 0
KPD2 141924Z 06005KT 14/M03 A3032 RMK A01 T01421030  RH  030%=      5-min Rain = 0
KPD2 141925Z 06004KT 14/M03 A3032 RMK A01 T01441032  RH  030%=      5-min Rain = 0
KPD2 141926Z 01007KT 14/M03 A3032 RMK A01 T01431033  RH  029%=      5-min Rain = 0
KPD2 141927Z 11005KT 14/M03 A3032 RMK A01 T01431032  RH  030%=      5-min Rain = 0
KPD2 141928Z 12008G13KT 14/M03 A3032 RMK A01 T01441032  RH  030%=      5-min Rain = 0
KPD2 141929Z 11007KT 14/M03 A3032 RMK A01 T01441034  RH  029%=      5-min Rain = 0
KPD2 141930Z 10005KT 14/M03 A3032 RMK A01 T01441032  RH  029%=      5-min Rain = 0
KPD2 141931Z 13008KT 15/M03 A3032 RMK A01 T01481032  RH  029%=      5-min Rain = 0
KPD2 141932Z 14006KT 15/M04 A3032 RMK A01 T01461035  RH  028%=      5-min Rain = 0
KPD2 141933Z 11007G12KT 14/M04 A3032 RMK A01 T01421035  RH  029%=      5-min Rain = 0
KPD2 141934Z 12006KT 14/M04 A3032 RMK A01 T01401035  RH  030%=      5-min Rain = 0
KPD2 141935Z 10004KT 14/M04 A3032 RMK A01 T01401035  RH  030%=      5-min Rain = 0
KPD2 141936Z 09002KT 14/M04 A3032 RMK A01 T01391035  RH  030%=      5-min Rain = 0
KPD2 141937Z 19001KT 14/M04 A3032 RMK A01 T01381035  RH  030%=      5-min Rain = 0
KPD2 141938Z 02003KT 14/M04 A3032 RMK A01 T01381035  RH  030%=      5-min Rain = 0
KPD2 141939Z 06005KT 14/M03 A3032 RMK A01 T01381034  RH  030%=      5-min Rain = 0
KPD2 141940Z 03006KT 14/M03 A3032 RMK A01 T01411034  RH  030%=      5-min Rain = 0
KPD2 141941Z 06005KT 14/M03 A3032 RMK A01 T01431033  RH  029%=      5-min Rain = 0
KPD2 141942Z 10002KT 14/M04 A3032 RMK A01 T01431035  RH  029%=      5-min Rain = 0
KPD2 141943Z 12002KT 14/M04 A3032 RMK A01 T01411035  RH  029%=      5-min Rain = 0
KPD2 141944Z 17002KT 14/M04 A3032 RMK A01 T01401035  RH  030%=      5-min Rain = 0
KPD2 141945Z 14006KT 14/M03 A3032 RMK A01 T01411034  RH  030%=      5-min Rain = 0
KPD2 141946Z 12010KT 14/M03 A3032 RMK A01 T01431034  RH  029%=      5-min Rain = 0
KPD2 141947Z 11009KT 15/M04 A3032 RMK A01 T01451035  RH  029%=      5-min Rain = 0
KPD2 141948Z 10007KT 15/M04 A3031 RMK A01 T01461035  RH  028%=      5-min Rain = 0
KPD2 141949Z 11006KT 15/M03 A3031 RMK A01 T01481034  RH  028%=      5-min Rain = 0
KPD2 141950Z 12007KT 15/M03 A3031 RMK A01 T01491034  RH  028%=      5-min Rain = 0
KPD2 141951Z 10006KT 15/M04 A3031 RMK A01 T01471035  RH  028%=      5-min Rain = 0
KPD2 141952Z 08003KT 15/M03 A3031 RMK A01 T01461034  RH  029%=      5-min Rain = 0
KPD2 141953Z 11002KT 14/M04 A3031 RMK A01 T01441036  RH  029%=      5-min Rain = 0
KPD2 141954Z 14002KT 14/M04 A3031 RMK A01 T01431035  RH  029%=      5-min Rain = 0
KPD2 141955Z 15003KT 14/M03 A3031 RMK A01 T01431034  RH  029%=      5-min Rain = 0
KPD2 141956Z 14007KT 15/M03 A3031 RMK A01 T01461033  RH  029%=      5-min Rain = 0
KPD2 141957Z 15007KT 15/M03 A3031 RMK A01 T01471034  RH  028%=      5-min Rain = 0
KPD2 141958Z 14008KT 15/M03 A3031 RMK A01 T01481034  RH  028%=      5-min Rain = 0
KPD2 141959Z 13009KT 15/M03 A3031 RMK A01 T01471034  RH  028%=      5-min Rain = 0
KPD2 142000Z 12007KT 15/M04 A3031 RMK A01 T01461035  RH  028%=      5-min Rain = 0
KPD2 142001Z 10005KT 15/M04 A303 RMK A01 T01451036  RH  028%=      5-min Rain = 0
KPD2 142002Z 14003G9KT 14/M04 A303 RMK A01 T01441037  RH  029%=      5-min Rain = 0
KPD2 142003Z 12008KT 15/M04 A303 RMK A01 T01461035  RH  029%=      5-min Rain = 0
KPD2 142004Z 12009KT 15/M04 A303 RMK A01 T01481036  RH  028%=      5-min Rain = 0
KPD2 142005Z 12007KT 15/M04 A303 RMK A01 T01471037  RH  028%=      5-min Rain = 0
KPD2 142006Z 13004KT 15/M04 A303 RMK A01 T01471036  RH  028%=      5-min Rain = 0
KPD2 142007Z 13005KT 15/M04 A303 RMK A01 T01471036  RH  028%=      5-min Rain = 0
KPD2 142008Z 12002KT 15/M04 A303 RMK A01 T01461037  RH  028%=      5-min Rain = 0
KPD2 142009Z 14003KT 15/M04 A303 RMK A01 T01451036  RH  028%=      5-min Rain = 0
KPD2 142010Z 14002KT 15/M04 A303 RMK A01 T01451036  RH  028%=      5-min Rain = 0
KPD2 142011Z 28001KT 15/M04 A303 RMK A01 T01461036  RH  028%=      5-min Rain = 0
KPD2 142012Z 11004KT 15/M04 A303 RMK A01 T01461036  RH  028%=      5-min Rain = 0
KPD2 142013Z 19002KT 15/M04 A303 RMK A01 T01471038  RH  028%=      5-min Rain = 0
KPD2 142014Z 17002KT 15/M04 A303 RMK A01 T01471037  RH  028%=      5-min Rain = 0
KPD2 142015Z 17001KT 15/M04 A303 RMK A01 T01491036  RH  028%=      5-min Rain = 0
KPD2 142016Z 05002KT 15/M04 A303 RMK A01 T01511036  RH  027%=      5-min Rain = 0
KPD2 142017Z 08003KT 15/M04 A303 RMK A01 T01521036  RH  027%=      5-min Rain = 0
KPD2 142018Z 06003KT 15/M04 A303 RMK A01 T01531037  RH  027%=      5-min Rain = 0
KPD2 142019Z 05004KT 15/M04 A303 RMK A01 T01501040  RH  027%=      5-min Rain = 0
KPD2 142020Z 04004KT 15/M04 A303 RMK A01 T01491039  RH  027%=      5-min Rain = 0
KPD2 142021Z 03004KT 15/M04 A303 RMK A01 T01491038  RH  027%=      5-min Rain = 0
KPD2 142022Z 04002KT 15/M04 A303 RMK A01 T01511037  RH  027%=      5-min Rain = 0
KPD2 142023Z 11000KT 15/M04 A303 RMK A01 T01531037  RH  027%=      5-min Rain = 0
KPD2 142024Z 12003KT 15/M04 A303 RMK A01 T01521038  RH  027%=      5-min Rain = 0
KPD2 142025Z 15005KT 15/M04 A3029 RMK A01 T01521037  RH  027%=      5-min Rain = 0
KPD2 142026Z 16003KT 15/M04 A3029 RMK A01 T01501039  RH  027%=      5-min Rain = 0
KPD2 142027Z 16004KT 15/M04 A3029 RMK A01 T01471039  RH  027%=      5-min Rain = 0
KPD2 142028Z 13003KT 15/M04 A3029 RMK A01 T01471038  RH  028%=      5-min Rain = 0
KPD2 142029Z 14007KT 15/M04 A3029 RMK A01 T01481036  RH  028%=      5-min Rain = 0
KPD2 142030Z 15007KT 15/M04 A3029 RMK A01 T01491036  RH  028%=      5-min Rain = 0
KPD2 142031Z 16005KT 15/M04 A3029 RMK A01 T01481037  RH  028%=      5-min Rain = 0
KPD2 142032Z 17002KT 15/M04 A3029 RMK A01 T01471037  RH  028%=      5-min Rain = 0
KPD2 142033Z 15004KT 15/M04 A3029 RMK A01 T01481036  RH  028%=      5-min Rain = 0
KPD2 142034Z 18003KT 15/M04 A3029 RMK A01 T01491036  RH  028%=      5-min Rain = 0
KPD2 142035Z 22003KT 15/M04 A3029 RMK A01 T01511036  RH  027%=      5-min Rain = 0
KPD2 142036Z 14004KT 15/M04 A3029 RMK A01 T01521036  RH  027%=      5-min Rain = 0
KPD2 142037Z 13006KT 15/M04 A3029 RMK A01 T01541036  RH  027%=      5-min Rain = 0
KPD2 142038Z 15006KT 16/M04 A3029 RMK A01 T01581035  RH  026%=      5-min Rain = 0
KPD2 142039Z 14008KT 16/M04 A3029 RMK A01 T01581037  RH  026%=      5-min Rain = 0
KPD2 142040Z 14008KT 16/M04 A3029 RMK A01 T01571038  RH  026%=      5-min Rain = 0
KPD2 142041Z 13004KT 15/M04 A3029 RMK A01 T01531040  RH  026%=      5-min Rain = 0
KPD2 142042Z 14006KT 15/M04 A3029 RMK A01 T01511039  RH  027%=      5-min Rain = 0
KPD2 142043Z 13009KT 15/M04 A3029 RMK A01 T01521038  RH  027%=      5-min Rain = 0
KPD2 142044Z 12008KT 15/M04 A3029 RMK A01 T01541038  RH  026%=      5-min Rain = 0
KPD2 142045Z 12007KT 15/M04 A3029 RMK A01 T01531038  RH  027%=      5-min Rain = 0
KPD2 142046Z 12003KT 15/M04 A3029 RMK A01 T01521038  RH  027%=      5-min Rain = 0
KPD2 142047Z 15002KT 15/M04 A3029 RMK A01 T01511039  RH  027%=      5-min Rain = 0
KPD2 142048Z 16002G7KT 15/M04 A3029 RMK A01 T01501038  RH  027%=      5-min Rain = 0
KPD2 142049Z 18003KT 15/M04 A3029 RMK A01 T01511038  RH  027%=      5-min Rain = 0
KPD2 142050Z 18003KT 15/M04 A3029 RMK A01 T01511039  RH  027%=      5-min Rain = 0
KPD2 142051Z 16004KT 15/M04 A3029 RMK A01 T01511037  RH  027%=      5-min Rain = 0
KPD2 142052Z 18003KT 15/M04 A3029 RMK A01 T01531037  RH  027%=      5-min Rain = 0
KPD2 142053Z 15004KT 15/M04 A3029 RMK A01 T01541038  RH  027%=      5-min Rain = 0
KPD2 142054Z 13006KT 15/M04 A3029 RMK A01 T01541040  RH  026%=      5-min Rain = 0
KPD2 142055Z 15005KT 16/M04 A3029 RMK A01 T01551039  RH  026%=      5-min Rain = 0
KPD2 142056Z 16005KT 15/M04 A3029 RMK A01 T01541039  RH  026%=      5-min Rain = 0
KPD2 142057Z 14006KT 15/M04 A3029 RMK A01 T01511040  RH  026%=      5-min Rain = 0
KPD2 142058Z 13005KT 15/M04 A3029 RMK A01 T01501039  RH  027%=      5-min Rain = 0
KPD2 142059Z 13006KT 15/M04 A3029 RMK A01 T01531038  RH  027%=      5-min Rain = 0
KPD2 142100Z 11005KT 15/M04 A3029 RMK A01 T01541039  RH  026%=      5-min Rain = 0
KPD2 142101Z 11005KT 15/M04 A3029 RMK A01 T01531039  RH  026%=      5-min Rain = 0
KPD2 142102Z 12004KT 15/M04 A3029 RMK A01 T01531039  RH  026%=      5-min Rain = 0
KPD2 142103Z 17005KT 15/M04 A3029 RMK A01 T01541038  RH  026%=      5-min Rain = 0
KPD2 142104Z 17006KT 16/M04 A3029 RMK A01 T01551039  RH  026%=      5-min Rain = 0
KPD2 142105Z 18005KT 15/M04 A3029 RMK A01 T01531039  RH  026%=      5-min Rain = 0
KPD2 142106Z 17005KT 15/M04 A3029 RMK A01 T01531039  RH  026%=      5-min Rain = 0
KPD2 142107Z 18005KT 15/M04 A3029 RMK A01 T01521039  RH  027%=      5-min Rain = 0
KPD2 142108Z 16005KT 15/M04 A3029 RMK A01 T01511039  RH  027%=      5-min Rain = 0
KPD2 142109Z 18004KT 15/M04 A3029 RMK A01 T01511039  RH  027%=      5-min Rain = 0
KPD2 142110Z 25001KT 15/M04 A3029 RMK A01 T01521040  RH  026%=      5-min Rain = 0
KPD2 142111Z 17001KT 15/M04 A3029 RMK A01 T01521040  RH  026%=      5-min Rain = 0
KPD2 142112Z 14005KT 15/M04 A3029 RMK A01 T01541039  RH  026%=      5-min Rain = 0
KPD2 142113Z 14004KT 16/M04 A3029 RMK A01 T01551038  RH  026%=      5-min Rain = 0
KPD2 142114Z 17003KT 16/M04 A3029 RMK A01 T01561038  RH  026%=      5-min Rain = 0
KPD2 142115Z 16003KT 16/M04 A3029 RMK A01 T01561039  RH  026%=      5-min Rain = 0
KPD2 142116Z 16003KT 16/M04 A3029 RMK A01 T01561039  RH  026%=      5-min Rain = 0
KPD2 142117Z 18004KT 16/M04 A3029 RMK A01 T01571039  RH  026%=      5-min Rain = 0
KPD2 142118Z 14006KT 16/M04 A3029 RMK A01 T01571039  RH  026%=      5-min Rain = 0
KPD2 142119Z 14007KT 16/M04 A3029 RMK A01 T01551040  RH  026%=      5-min Rain = 0
KPD2 142120Z 14007KT 15/M04 A3029 RMK A01 T01541039  RH  026%=      5-min Rain = 0
KPD2 142121Z 15005KT 15/M04 A3029 RMK A01 T01531039  RH  026%=      5-min Rain = 0
KPD2 142122Z 12004KT 15/M04 A3029 RMK A01 T01531039  RH  026%=      5-min Rain = 0
KPD2 142123Z 11003KT 15/M04 A3029 RMK A01 T01521039  RH  026%=      5-min Rain = 0
KPD2 142124Z 11003KT 15/M04 A3029 RMK A01 T01531039  RH  026%=      5-min Rain = 0
KPD2 142125Z 16003KT 15/M04 A3029 RMK A01 T01541040  RH  026%=      5-min Rain = 0
KPD2 142126Z 19005KT 15/M04 A3029 RMK A01 T01541039  RH  026%=      5-min Rain = 0
KPD2 142127Z 17007KT 16/M04 A3029 RMK A01 T01561039  RH  026%=      5-min Rain = 0
KPD2 142128Z 15006KT 16/M04 A3029 RMK A01 T01561039  RH  026%=      5-min Rain = 0
KPD2 142129Z 15005KT 16/M04 A3029 RMK A01 T01551040  RH  026%=      5-min Rain = 0
KPD2 142130Z 20006KT 15/M04 A3029 RMK A01 T01541040  RH  026%=      5-min Rain = 0
KPD2 142131Z 20006KT 15/M04 A3029 RMK A01 T01541040  RH  026%=      5-min Rain = 0
KPD2 142132Z 18005KT 15/M04 A3029 RMK A01 T01541040  RH  026%=      5-min Rain = 0
KPD2 142133Z 16004KT 15/M04 A3029 RMK A01 T01541040  RH  026%=      5-min Rain = 0
KPD2 142134Z 16005KT 15/M04 A3029 RMK A01 T01541040  RH  026%=      5-min Rain = 0
KPD2 142135Z 16005KT 15/M04 A3029 RMK A01 T01541041  RH  026%=      5-min Rain = 0
KPD2 142136Z 16005KT 15/M04 A3029 RMK A01 T01541041  RH  026%=      5-min Rain = 0
KPD2 142137Z 16005KT 15/M04 A3029 RMK A01 T01541041  RH  026%=      5-min Rain = 0
KPD2 142138Z 16005KT 15/M04 A3029 RMK A01 T01541041  RH  026%=      5-min Rain = 0
KPD2 142139Z 19005KT 15/M04 A3029 RMK A01 T01541041  RH  026%=      5-min Rain = 0
KPD2 142140Z 20005KT 15/M04 A3029 RMK A01 T01541041  RH  026%=      5-min Rain = 0
KPD2 142141Z 21005KT 15/M04 A3029 RMK A01 T01541041  RH  026%=      5-min Rain = 0
KPD2 142142Z 17005KT 15/M04 A3029 RMK A01 T01541041  RH  026%=      5-min Rain = 0
KPD2 142143Z 16005KT 15/M04 A3029 RMK A01 T01541041  RH  026%=      5-min Rain = 0
KPD2 142144Z 14004KT 15/M04 A3029 RMK A01 T01541041  RH  026%=      5-min Rain = 0
KPD2 142145Z 17004KT 15/M04 A3029 RMK A01 T01541041  RH  026%=      5-min Rain = 0
KPD2 142146Z 19004KT 15/M04 A3029 RMK A01 T01541041  RH  026%=      5-min Rain = 0
KPD2 142147Z 22002KT 15/M04 A3029 RMK A01 T01541042  RH  026%=      5-min Rain = 0
KPD2 142148Z 22003KT 16/M04 A3029 RMK A01 T01551041  RH  026%=      5-min Rain = 0
KPD2 142149Z 23004KT 16/M04 A3029 RMK A01 T01571041  RH  025%=      5-min Rain = 0
KPD2 142150Z 23004KT 16/M04 A3029 RMK A01 T01581041  RH  025%=      5-min Rain = 0
KPD2 142151Z 18003KT 16/M04 A3029 RMK A01 T01581042  RH  025%=      5-min Rain = 0
KPD2 142152Z 19003KT 16/M04 A3028 RMK A01 T01571042  RH  025%=      5-min Rain = 0
KPD2 142153Z 19003KT 16/M04 A3028 RMK A01 T01571041  RH  025%=      5-min Rain = 0
KPD2 142154Z 21005KT 16/M04 A3028 RMK A01 T01561042  RH  025%=      5-min Rain = 0
KPD2 142155Z 22004KT 16/M04 A3028 RMK A01 T01561042  RH  025%=      5-min Rain = 0
KPD2 142156Z 21003KT 16/M04 A3028 RMK A01 T01561042  RH  025%=      5-min Rain = 0
KPD2 142157Z 20003KT 16/M04 A3028 RMK A01 T01571042  RH  025%=      5-min Rain = 0
KPD2 142158Z 18003KT 16/M04 A3028 RMK A01 T01571042  RH  025%=      5-min Rain = 0
KPD2 142159Z 11000KT 16/M04 A3028 RMK A01 T01561042  RH  025%=      5-min Rain = 0
KPD2 142200Z 20001KT 16/M04 A3028 RMK A01 T01561042  RH  025%=      5-min Rain = 0
KPD2 142201Z 15004KT 16/M04 A3028 RMK A01 T01571042  RH  025%=      5-min Rain = 0
KPD2 142202Z 15004KT 16/M04 A3028 RMK A01 T01571042  RH  025%=      5-min Rain = 0
KPD2 142203Z 16004KT 16/M04 A3028 RMK A01 T01561041  RH  025%=      5-min Rain = 0
KPD2 142204Z 15005KT 16/M04 A3028 RMK A01 T01561041  RH  025%=      5-min Rain = 0
KPD2 142205Z 14003KT 16/M04 A3028 RMK A01 T01561041  RH  025%=      5-min Rain = 0
KPD2 142206Z 16005KT 16/M04 A3028 RMK A01 T01551042  RH  026%=      5-min Rain = 0
KPD2 142207Z 16004KT 16/M04 A3028 RMK A01 T01551042  RH  026%=      5-min Rain = 0
KPD2 142208Z 16004KT 15/M04 A3028 RMK A01 T01541042  RH  026%=      5-min Rain = 0
KPD2 142209Z 15004KT 15/M04 A3028 RMK A01 T01541042  RH  026%=      5-min Rain = 0
KPD2 142210Z 13004KT 15/M04 A3028 RMK A01 T01541041  RH  026%=      5-min Rain = 0
KPD2 142211Z 14004KT 15/M04 A3028 RMK A01 T01541042  RH  026%=      5-min Rain = 0
KPD2 142212Z 15003KT 15/M04 A3028 RMK A01 T01541042  RH  026%=      5-min Rain = 0
KPD2 142213Z 14003KT 15/M04 A3028 RMK A01 T01531043  RH  026%=      5-min Rain = 0
KPD2 142214Z 13002KT 15/M04 A3028 RMK A01 T01541043  RH  026%=      5-min Rain = 0
KPD2 142215Z 11002KT 15/M04 A3028 RMK A01 T01531043  RH  026%=      5-min Rain = 0
KPD2 142216Z 15002KT 15/M04 A3028 RMK A01 T01541042  RH  026%=      5-min Rain = 0
KPD2 142217Z 15002KT 15/M04 A3028 RMK A01 T01541042  RH  026%=      5-min Rain = 0
KPD2 142218Z 18001KT 15/M04 A3028 RMK A01 T01541042  RH  025%=      5-min Rain = 0
KPD2 142219Z 19000KT 16/M04 A3028 RMK A01 T01551043  RH  025%=      5-min Rain = 0
KPD2 142220Z 21000KT 16/M04 A3028 RMK A01 T01561042  RH  025%=      5-min Rain = 0
KPD2 142221Z 22001KT 16/M04 A3028 RMK A01 T01581042  RH  025%=      5-min Rain = 0
KPD2 142222Z 18002KT 16/M04 A3028 RMK A01 T01591042  RH  025%=      5-min Rain = 0
KPD2 142223Z 16003KT 16/M04 A3028 RMK A01 T01581042  RH  025%=      5-min Rain = 0
KPD2 142224Z 15004KT 16/M04 A3028 RMK A01 T01581042  RH  025%=      5-min Rain = 0
KPD2 142225Z 12003KT 16/M04 A3028 RMK A01 T01571041  RH  025%=      5-min Rain = 0
KPD2 142226Z 14003KT 16/M04 A3028 RMK A01 T01561042  RH  025%=      5-min Rain = 0
KPD2 142227Z 18003KT 16/M04 A3028 RMK A01 T01551042  RH  025%=      5-min Rain = 0
KPD2 142228Z 19003KT 16/M04 A3028 RMK A01 T01551042  RH  026%=      5-min Rain = 0
KPD2 142229Z 19003KT 15/M04 A3028 RMK A01 T01541042  RH  026%=      5-min Rain = 0
KPD2 142230Z 16003KT 15/M04 A3028 RMK A01 T01541042  RH  026%=      5-min Rain = 0
KPD2 142231Z 16003KT 15/M04 A3027 RMK A01 T01531042  RH  026%=      5-min Rain = 0
KPD2 142232Z 16003KT 15/M04 A3027 RMK A01 T01531042  RH  026%=      5-min Rain = 0
KPD2 142233Z 17002KT 15/M04 A3027 RMK A01 T01531042  RH  026%=      5-min Rain = 0
KPD2 142234Z 17002KT 15/M04 A3027 RMK A01 T01531043  RH  026%=      5-min Rain = 0
KPD2 142235Z 18003KT 15/M04 A3027 RMK A01 T01531042  RH  026%=      5-min Rain = 0
KPD2 142236Z 17003KT 15/M04 A3027 RMK A01 T01521041  RH  026%=      5-min Rain = 0
KPD2 142237Z 16004KT 15/M04 A3027 RMK A01 T01521042  RH  026%=      5-min Rain = 0
KPD2 142238Z 15004KT 15/M04 A3027 RMK A01 T01511042  RH  026%=      5-min Rain = 0
KPD2 142239Z 15004KT 15/M04 A3027 RMK A01 T01501043  RH  026%=      5-min Rain = 0
KPD2 142240Z 15004KT 15/M04 A3027 RMK A01 T01491043  RH  026%=      5-min Rain = 0
KPD2 142241Z 16004KT 15/M04 A3027 RMK A01 T01491043  RH  026%=      5-min Rain = 0
KPD2 142242Z 15003KT 15/M04 A3027 RMK A01 T01491043  RH  026%=      5-min Rain = 0
KPD2 142243Z 16004KT 15/M04 A3027 RMK A01 T01491043  RH  026%=      5-min Rain = 0
KPD2 142244Z 17002KT 15/M04 A3027 RMK A01 T01491043  RH  026%=      5-min Rain = 0
KPD2 142245Z 15003KT 15/M04 A3027 RMK A01 T01491043  RH  026%=      5-min Rain = 0
KPD2 142246Z 17003KT 15/M04 A3027 RMK A01 T01481043  RH  026%=      5-min Rain = 0
KPD2 142247Z 18003KT 15/M04 A3027 RMK A01 T01481042  RH  027%=      5-min Rain = 0
KPD2 142248Z 17004KT 15/M04 A3027 RMK A01 T01481041  RH  027%=      5-min Rain = 0
KPD2 142249Z 15003KT 15/M04 A3027 RMK A01 T01481042  RH  027%=      5-min Rain = 0
KPD2 142250Z 15003KT 15/M04 A3027 RMK A01 T01471042  RH  027%=      5-min Rain = 0
KPD2 142251Z 14004KT 15/M04 A3027 RMK A01 T01471042  RH  027%=      5-min Rain = 0
KPD2 142252Z 15003KT 15/M04 A3027 RMK A01 T01471043  RH  027%=      5-min Rain = 0
KPD2 142253Z 16004KT 15/M04 A3027 RMK A01 T01471042  RH  027%=      5-min Rain = 0
KPD2 142254Z 15005KT 15/M04 A3027 RMK A01 T01471041  RH  027%=      5-min Rain = 0
KPD2 142255Z 16004KT 15/M04 A3027 RMK A01 T01471042  RH  027%=      5-min Rain = 0
KPD2 142256Z 18005KT 15/M04 A3027 RMK A01 T01461042  RH  027%=      5-min Rain = 0
KPD2 142257Z 16003KT 15/M04 A3027 RMK A01 T01461041  RH  027%=      5-min Rain = 0
KPD2 142258Z 16003KT 15/M04 A3027 RMK A01 T01451041  RH  027%=      5-min Rain = 0
KPD2 142259Z 16003KT 15/M04 A3027 RMK A01 T01451041  RH  027%=      5-min Rain = 0
KPD2 142300Z 17003KT 15/M04 A3027 RMK A01 T01461041  RH  027%=      5-min Rain = 0
KPD2 142301Z 18003KT 15/M04 A3027 RMK A01 T01461041  RH  027%=      5-min Rain = 0
KPD2 142302Z 17004KT 15/M04 A3027 RMK A01 T01461041  RH  027%=      5-min Rain = 0
KPD2 142303Z 18003KT 15/M04 A3027 RMK A01 T01461042  RH  027%=      5-min Rain = 0
KPD2 142304Z 19003KT 15/M04 A3027 RMK A01 T01461041  RH  027%=      5-min Rain = 0
KPD2 142305Z 18003KT 15/M04 A3027 RMK A01 T01451041  RH  027%=      5-min Rain = 0
KPD2 142306Z 18004KT 14/M04 A3027 RMK A01 T01441041  RH  027%=      5-min Rain = 0
KPD2 142307Z 17004KT 14/M04 A3027 RMK A01 T01431041  RH  028%=      5-min Rain = 0
KPD2 142308Z 17004KT 14/M04 A3027 RMK A01 T01431041  RH  028%=      5-min Rain = 0
KPD2 142309Z 17004KT 14/M04 A3027 RMK A01 T01411042  RH  028%=      5-min Rain = 0
KPD2 142310Z 17003KT 14/M04 A3027 RMK A01 T01411042  RH  028%=      5-min Rain = 0
KPD2 142311Z 16003KT 14/M04 A3027 RMK A01 T01411041  RH  028%=      5-min Rain = 0
KPD2 142312Z 16003KT 14/M04 A3027 RMK A01 T01411041  RH  028%=      5-min Rain = 0
KPD2 142313Z 15003KT 14/M04 A3027 RMK A01 T01411041  RH  028%=      5-min Rain = 0
KPD2 142314Z 15003KT 14/M04 A3027 RMK A01 T01401041  RH  028%=      5-min Rain = 0
KPD2 142315Z 15004KT 14/M04 A3027 RMK A01 T01401041  RH  028%=      5-min Rain = 0
KPD2 142316Z 15003KT 14/M04 A3027 RMK A01 T01401042  RH  028%=      5-min Rain = 0
KPD2 142317Z 15004KT 14/M04 A3027 RMK A01 T01401042  RH  028%=      5-min Rain = 0
KPD2 142318Z 16004KT 14/M04 A3027 RMK A01 T01401041  RH  028%=      5-min Rain = 0
KPD2 142319Z 17004KT 14/M04 A3027 RMK A01 T01391041  RH  028%=      5-min Rain = 0
KPD2 142320Z 16004KT 14/M04 A3027 RMK A01 T01391041  RH  028%=      5-min Rain = 0
KPD2 142321Z 15003KT 14/M04 A3027 RMK A01 T01371041  RH  029%=      5-min Rain = 0
KPD2 142322Z 14003KT 14/M04 A3027 RMK A01 T01361042  RH  029%=      5-min Rain = 0
KPD2 142323Z 14003KT 13/M04 A3027 RMK A01 T01341042  RH  029%=      5-min Rain = 0
KPD2 142324Z 13003KT 13/M04 A3027 RMK A01 T01331042  RH  029%=      5-min Rain = 0
KPD2 142325Z 14002KT 13/M04 A3027 RMK A01 T01321042  RH  030%=      5-min Rain = 0
KPD2 142326Z 16003KT 13/M04 A3027 RMK A01 T01301042  RH  030%=      5-min Rain = 0
KPD2 142327Z 16003KT 13/M04 A3027 RMK A01 T01281042  RH  030%=      5-min Rain = 0
KPD2 142328Z 16003KT 13/M04 A3027 RMK A01 T01271042  RH  030%=      5-min Rain = 0
KPD2 142329Z 17003KT 13/M04 A3027 RMK A01 T01261042  RH  031%=      5-min Rain = 0
KPD2 142330Z 17003KT 13/M04 A3027 RMK A01 T01251042  RH  031%=      5-min Rain = 0
KPD2 142331Z 17003KT 13/M04 A3027 RMK A01 T01251042  RH  031%=      5-min Rain = 0
KPD2 142332Z 17002KT 12/M04 A3027 RMK A01 T01241042  RH  031%=      5-min Rain = 0
KPD2 142333Z 17002KT 12/M04 A3027 RMK A01 T01231042  RH  031%=      5-min Rain = 0
KPD2 142334Z 15002KT 12/M04 A3027 RMK A01 T01231042  RH  031%=      5-min Rain = 0
KPD2 142335Z 16003KT 12/M04 A3027 RMK A01 T01221042  RH  031%=      5-min Rain = 0
KPD2 142336Z 15003KT 12/M04 A3027 RMK A01 T01221042  RH  031%=      5-min Rain = 0
KPD2 142337Z 14002KT 12/M04 A3027 RMK A01 T01221042  RH  032%=      5-min Rain = 0
KPD2 142338Z 13002KT 12/M04 A3027 RMK A01 T01211043  RH  032%=      5-min Rain = 0
KPD2 142339Z 14002KT 12/M04 A3027 RMK A01 T01201043  RH  032%=      5-min Rain = 0
KPD2 142340Z 15002KT 12/M04 A3027 RMK A01 T01201043  RH  032%=      5-min Rain = 0
KPD2 142341Z 14002KT 12/M04 A3027 RMK A01 T01191043  RH  032%=      5-min Rain = 0
KPD2 142342Z 15002KT 12/M04 A3027 RMK A01 T01191042  RH  032%=      5-min Rain = 0
KPD2 142343Z 15002KT 12/M04 A3027 RMK A01 T01181042  RH  032%=      5-min Rain = 0
KPD2 142344Z 16002KT 12/M04 A3027 RMK A01 T01181042  RH  032%=      5-min Rain = 0
KPD2 142345Z 16002KT 12/M04 A3027 RMK A01 T01181042  RH  032%=      5-min Rain = 0
KPD2 142346Z 15002KT 12/M04 A3027 RMK A01 T01171042  RH  032%=      5-min Rain = 0
KPD2 142347Z 15002KT 12/M04 A3027 RMK A01 T01161043  RH  033%=      5-min Rain = 0
KPD2 142348Z 14002KT 12/M04 A3027 RMK A01 T01151042  RH  033%=      5-min Rain = 0
KPD2 142349Z 15003KT 11/M04 A3027 RMK A01 T01141043  RH  033%=      5-min Rain = 0
KPD2 142350Z 15003KT 11/M04 A3027 RMK A01 T01141042  RH  033%=      5-min Rain = 0
KPD2 142351Z 16002KT 11/M04 A3027 RMK A01 T01141043  RH  033%=      5-min Rain = 0
KPD2 142352Z 15003KT 11/M04 A3027 RMK A01 T01141042  RH  033%=      5-min Rain = 0
KPD2 142353Z 14003KT 12/M04 A3027 RMK A01 T01151042  RH  033%=      5-min Rain = 0
KPD2 142354Z 14002KT 11/M04 A3026 RMK A01 T01141043  RH  033%=      5-min Rain = 0
KPD2 142355Z 13002KT 11/M04 A3026 RMK A01 T01131043  RH  033%=      5-min Rain = 0
KPD2 142356Z 13003KT 11/M04 A3026 RMK A01 T01121044  RH  033%=      5-min Rain = 0
KPD2 142357Z 13003KT 11/M05 A3026 RMK A01 T01111045  RH  033%=      5-min Rain = 0
KPD2 142358Z 14003KT 11/M05 A3026 RMK A01 T01101045  RH  033%=      5-min Rain = 0
KPD2 142359Z 13003KT 11/M05 A3026 RMK A01 T01091045  RH  034%=      5-min Rain = 0
KPD2 150000Z 13003KT 11/M05 A3026 RMK A01 T01081045  RH  034%=      5-min Rain = 0
KPD2 150001Z 12004KT 11/M05 A3026 RMK A01 T01081046  RH  034%=      5-min Rain = 0
KPD2 150002Z 13004KT 11/M05 A3026 RMK A01 T01071046  RH  034%=      5-min Rain = 0
KPD2 150003Z 13003KT 11/M05 A3026 RMK A01 T01061046  RH  034%=      5-min Rain = 0
KPD2 150004Z 13003KT 11/M05 A3026 RMK A01 T01051045  RH  034%=      5-min Rain = 0
KPD2 150005Z 12002KT 11/M05 A3026 RMK A01 T01051046  RH  034%=      5-min Rain = 0
KPD2 150006Z 12002KT 10/M05 A3026 RMK A01 T01041046  RH  035%=      5-min Rain = 0
KPD2 150007Z 12002KT 10/M05 A3026 RMK A01 T01031046  RH  035%=      5-min Rain = 0
KPD2 150008Z 12002KT 10/M05 A3027 RMK A01 T01021046  RH  035%=      5-min Rain = 0
KPD2 150009Z 15002KT 10/M05 A3027 RMK A01 T01011045  RH  035%=      5-min Rain = 0
KPD2 150010Z 16002KT 10/M05 A3027 RMK A01 T01011046  RH  035%=      5-min Rain = 0
KPD2 150011Z 14003KT 10/M05 A3027 RMK A01 T01001046  RH  036%=      5-min Rain = 0
KPD2 150012Z 14002KT 10/M05 A3027 RMK A01 T00991048  RH  035%=      5-min Rain = 0
KPD2 150013Z 13002KT 10/M05 A3027 RMK A01 T00981050  RH  035%=      5-min Rain = 0
KPD2 150014Z 13002KT 10/M05 A3027 RMK A01 T00961049  RH  035%=      5-min Rain = 0
KPD2 150015Z 15002KT 10/M05 A3027 RMK A01 T00961046  RH  036%=      5-min Rain = 0
KPD2 150016Z 13002KT 10/M05 A3027 RMK A01 T00951046  RH  037%=      5-min Rain = 0
KPD2 150017Z 11002KT 10/M05 A3027 RMK A01 T00951046  RH  037%=      5-min Rain = 0
KPD2 150018Z 11002KT 10/M05 A3027 RMK A01 T00951045  RH  037%=      5-min Rain = 0
KPD2 150019Z 12002KT 10/M05 A3027 RMK A01 T00961045  RH  037%=      5-min Rain = 0
KPD2 150020Z 12001KT 10/M05 A3027 RMK A01 T00971046  RH  036%=      5-min Rain = 0
KPD2 150021Z 12001KT 10/M05 A3027 RMK A01 T00961046  RH  036%=      5-min Rain = 0
KPD2 150022Z 13002KT 10/M05 A3027 RMK A01 T00951046  RH  037%=      5-min Rain = 0
KPD2 150023Z 14001KT 10/M05 A3027 RMK A01 T00951045  RH  037%=      5-min Rain = 0
KPD2 150024Z 15002KT 10/M05 A3027 RMK A01 T00961045  RH  037%=      5-min Rain = 0
KPD2 150025Z 14002KT 10/M05 A3027 RMK A01 T00961045  RH  037%=      5-min Rain = 0
KPD2 150026Z 14002KT 10/M05 A3027 RMK A01 T00961045  RH  037%=      5-min Rain = 0
KPD2 150027Z 13002KT 10/M05 A3027 RMK A01 T00961045  RH  037%=      5-min Rain = 0
KPD2 150028Z 14002KT 10/M05 A3027 RMK A01 T00951046  RH  037%=      5-min Rain = 0
KPD2 150029Z 15002KT 10/M05 A3027 RMK A01 T00951046  RH  037%=      5-min Rain = 0
KPD2 150030Z 14002KT 10/M05 A3027 RMK A01 T00951045  RH  037%=      5-min Rain = 0
KPD2 150031Z 13003KT 10/M05 A3027 RMK A01 T00951046  RH  037%=      5-min Rain = 0
KPD2 150032Z 13003KT 10/M05 A3027 RMK A01 T00951046  RH  037%=      5-min Rain = 0
KPD2 150033Z 12003KT 09/M05 A3027 RMK A01 T00941047  RH  037%=      5-min Rain = 0
KPD2 150034Z 12003KT 09/M05 A3027 RMK A01 T00931047  RH  037%=      5-min Rain = 0
KPD2 150035Z 12003KT 09/M05 A3027 RMK A01 T00921048  RH  037%=      5-min Rain = 0
KPD2 150036Z 12004KT 09/M05 A3027 RMK A01 T00911047  RH  037%=      5-min Rain = 0
KPD2 150037Z 13004KT 09/M05 A3027 RMK A01 T00901048  RH  037%=      5-min Rain = 0
KPD2 150038Z 13004KT 09/M05 A3027 RMK A01 T00891048  RH  038%=      5-min Rain = 0
KPD2 150039Z 15003KT 09/M05 A3027 RMK A01 T00881049  RH  038%=      5-min Rain = 0
KPD2 150040Z 15004KT 09/M05 A3027 RMK A01 T00871049  RH  038%=      5-min Rain = 0
KPD2 150041Z 14005KT 09/M05 A3027 RMK A01 T00851049  RH  038%=      5-min Rain = 0
KPD2 150042Z 14004KT 08/M05 A3027 RMK A01 T00841048  RH  039%=      5-min Rain = 0
KPD2 150043Z 14004KT 08/M05 A3027 RMK A01 T00841048  RH  039%=      5-min Rain = 0
KPD2 150044Z 13004KT 08/M05 A3027 RMK A01 T00841048  RH  039%=      5-min Rain = 0
KPD2 150045Z 12003KT 08/M05 A3027 RMK A01 T00841049  RH  039%=      5-min Rain = 0
KPD2 150046Z 12003KT 08/M05 A3027 RMK A01 T00831048  RH  039%=      5-min Rain = 0
KPD2 150047Z 12004KT 08/M05 A3027 RMK A01 T00831049  RH  039%=      5-min Rain = 0
KPD2 150048Z 12004KT 08/M05 A3027 RMK A01 T00821049  RH  039%=      5-min Rain = 0
KPD2 150049Z 11003KT 08/M05 A3027 RMK A01 T00821049  RH  039%=      5-min Rain = 0
KPD2 150050Z 11004KT 08/M05 A3027 RMK A01 T00821048  RH  039%=      5-min Rain = 0
KPD2 150051Z 11004KT 08/M05 A3027 RMK A01 T00841046  RH  039%=      5-min Rain = 0
KPD2 150052Z 11003KT 09/M05 A3027 RMK A01 T00871046  RH  039%=      5-min Rain = 0
KPD2 150053Z 11002KT 09/M05 A3027 RMK A01 T00881048  RH  038%=      5-min Rain = 0
KPD2 150054Z 11003KT 09/M05 A3027 RMK A01 T00861049  RH  038%=      5-min Rain = 0
KPD2 150055Z 13004KT 09/M05 A3027 RMK A01 T00851049  RH  038%=      5-min Rain = 0
KPD2 150056Z 13004KT 08/M05 A3027 RMK A01 T00841049  RH  039%=      5-min Rain = 0
KPD2 150057Z 13003KT 08/M05 A3027 RMK A01 T00831050  RH  039%=      5-min Rain = 0
KPD2 150058Z 15002KT 08/M05 A3027 RMK A01 T00811050  RH  039%=      5-min Rain = 0
KPD2 150059Z 14003KT 08/M05 A3027 RMK A01 T00791049  RH  040%=      5-min Rain = 0
KPD2 150100Z 16003KT 08/M05 A3027 RMK A01 T00771050  RH  040%=      5-min Rain = 0
KPD2 150101Z 15002KT 08/M05 A3027 RMK A01 T00761050  RH  040%=      5-min Rain = 0
KPD2 150102Z 14002KT 08/M05 A3027 RMK A01 T00751050  RH  041%=      5-min Rain = 0
KPD2 150103Z 13003KT 07/M05 A3027 RMK A01 T00741050  RH  041%=      5-min Rain = 0
KPD2 150104Z 12004KT 07/M05 A3027 RMK A01 T00741050  RH  041%=      5-min Rain = 0
KPD2 150105Z 13004KT 07/M05 A3027 RMK A01 T00741049  RH  041%=      5-min Rain = 0
KPD2 150106Z 13003KT 07/M05 A3027 RMK A01 T00741051  RH  041%=      5-min Rain = 0
KPD2 150107Z 12003KT 07/M05 A3027 RMK A01 T00731052  RH  041%=      5-min Rain = 0
KPD2 150108Z 13004KT 07/M05 A3027 RMK A01 T00731051  RH  041%=      5-min Rain = 0
KPD2 150109Z 13003KT 07/M05 A3028 RMK A01 T00721051  RH  041%=      5-min Rain = 0
KPD2 150110Z 12004KT 07/M05 A3028 RMK A01 T00721051  RH  041%=      5-min Rain = 0
KPD2 150111Z 12004KT 07/M05 A3028 RMK A01 T00711052  RH  041%=      5-min Rain = 0
KPD2 150112Z 12003KT 07/M05 A3027 RMK A01 T00701052  RH  041%=      5-min Rain = 0
KPD2 150113Z 11003KT 07/M05 A3027 RMK A01 T00691053  RH  041%=      5-min Rain = 0
KPD2 150114Z 11003KT 07/M05 A3027 RMK A01 T00681052  RH  042%=      5-min Rain = 0
KPD2 150115Z 11004KT 07/M05 A3027 RMK A01 T00671052  RH  042%=      5-min Rain = 0
KPD2 150116Z 11004KT 07/M05 A3027 RMK A01 T00671051  RH  043%=      5-min Rain = 0
KPD2 150117Z 11005KT 07/M05 A3027 RMK A01 T00701048  RH  043%=      5-min Rain = 0
KPD2 150118Z 10004KT 08/M05 A3027 RMK A01 T00751045  RH  042%=      5-min Rain = 0
KPD2 150119Z 11004KT 08/M05 A3027 RMK A01 T00791045  RH  041%=      5-min Rain = 0
KPD2 150120Z 11004KT 08/M05 A3027 RMK A01 T00831045  RH  040%=      5-min Rain = 0
KPD2 150121Z 11004KT 09/M05 A3027 RMK A01 T00851045  RH  039%=      5-min Rain = 0
KPD2 150122Z 10006KT 09/M05 A3027 RMK A01 T00871045  RH  039%=      5-min Rain = 0
KPD2 150123Z 11003KT 09/M05 A3027 RMK A01 T00891046  RH  038%=      5-min Rain = 0
KPD2 150124Z 15004KT 09/M05 A3027 RMK A01 T00861051  RH  038%=      5-min Rain = 0
KPD2 150125Z 15004KT 08/M05 A3027 RMK A01 T00791053  RH  039%=      5-min Rain = 0
KPD2 150126Z 15004KT 07/M05 A3027 RMK A01 T00731054  RH  040%=      5-min Rain = 0
KPD2 150127Z 13004KT 07/M05 A3027 RMK A01 T00701053  RH  041%=      5-min Rain = 0
KPD2 150128Z 13004KT 07/M05 A3027 RMK A01 T00681053  RH  042%=      5-min Rain = 0
KPD2 150129Z 14005KT 07/M05 A3027 RMK A01 T00671051  RH  042%=      5-min Rain = 0
KPD2 150130Z 14004KT 07/M05 A3027 RMK A01 T00681051  RH  042%=      5-min Rain = 0
KPD2 150131Z 13004KT 07/M05 A3027 RMK A01 T00691051  RH  042%=      5-min Rain = 0
KPD2 150132Z 11004KT 07/M05 A3027 RMK A01 T00681052  RH  042%=      5-min Rain = 0
KPD2 150133Z 11005KT 07/M05 A3027 RMK A01 T00681051  RH  042%=      5-min Rain = 0
KPD2 150134Z 10004KT 07/M05 A3027 RMK A01 T00701049  RH  042%=      5-min Rain = 0
KPD2 150135Z 10005KT 07/M05 A3027 RMK A01 T00731048  RH  042%=      5-min Rain = 0
KPD2 150136Z 12003KT 08/M05 A3027 RMK A01 T00761048  RH  041%=      5-min Rain = 0
KPD2 150137Z 12004KT 08/M05 A3027 RMK A01 T00771050  RH  040%=      5-min Rain = 0
KPD2 150138Z 11004KT 08/M05 A3028 RMK A01 T00761052  RH  040%=      5-min Rain = 0
KPD2 150139Z 12004KT 07/M05 A3028 RMK A01 T00741054  RH  040%=      5-min Rain = 0
KPD2 150140Z 11004KT 07/M06 A3028 RMK A01 T00711055  RH  040%=      5-min Rain = 0
KPD2 150141Z 16002KT 07/M06 A3028 RMK A01 T00681055  RH  041%=      5-min Rain = 0
KPD2 150142Z 14003KT 06/M06 A3028 RMK A01 T00641056  RH  042%=      5-min Rain = 0
KPD2 150143Z 13003KT 06/M06 A3028 RMK A01 T00621055  RH  043%=      5-min Rain = 0
KPD2 150144Z 12003KT 06/M05 A3028 RMK A01 T00611054  RH  044%=      5-min Rain = 0
KPD2 150145Z 10003KT 06/M05 A3028 RMK A01 T00601053  RH  044%=      5-min Rain = 0
KPD2 150146Z 15003KT 06/M05 A3028 RMK A01 T00591054  RH  044%=      5-min Rain = 0
KPD2 150147Z 13003KT 06/M05 A3028 RMK A01 T00601053  RH  044%=      5-min Rain = 0
KPD2 150148Z 14003KT 06/M05 A3028 RMK A01 T00601053  RH  044%=      5-min Rain = 0
KPD2 150149Z 17002KT 06/M05 A3028 RMK A01 T00601053  RH  044%=      5-min Rain = 0
KPD2 150150Z 16004KT 06/M05 A3028 RMK A01 T00611053  RH  044%=      5-min Rain = 0
KPD2 150151Z 14004KT 06/M05 A3028 RMK A01 T00611053  RH  044%=      5-min Rain = 0
KPD2 150152Z 14004KT 06/M05 A3028 RMK A01 T00611053  RH  044%=      5-min Rain = 0
KPD2 150153Z 13004KT 06/M05 A3028 RMK A01 T00611053  RH  044%=      5-min Rain = 0
KPD2 150154Z 15002KT 06/M05 A3028 RMK A01 T00611052  RH  044%=      5-min Rain = 0
KPD2 150155Z 12004KT 06/M05 A3028 RMK A01 T00621053  RH  044%=      5-min Rain = 0
KPD2 150156Z 13003KT 06/M05 A3027 RMK A01 T00621054  RH  043%=      5-min Rain = 0
KPD2 150157Z 15003KT 06/M05 A3027 RMK A01 T00621054  RH  043%=      5-min Rain = 0
KPD2 150158Z 13003KT 06/M05 A3027 RMK A01 T00611054  RH  043%=      5-min Rain = 0
KPD2 150159Z 14003KT 06/M05 A3027 RMK A01 T00611054  RH  044%=      5-min Rain = 0
KPD2 150200Z 14003KT 06/M06 A3027 RMK A01 T00601055  RH  043%=      5-min Rain = 0
KPD2 150201Z 12004KT 06/M06 A3027 RMK A01 T00601055  RH  043%=      5-min Rain = 0
KPD2 150202Z 13004KT 06/M06 A3027 RMK A01 T00601056  RH  043%=      5-min Rain = 0
KPD2 150203Z 13003KT 06/M06 A3027 RMK A01 T00591056  RH  044%=      5-min Rain = 0
KPD2 150204Z 11002KT 06/M06 A3027 RMK A01 T00581056  RH  044%=      5-min Rain = 0
KPD2 150205Z 11003KT 06/M06 A3027 RMK A01 T00571056  RH  044%=      5-min Rain = 0
KPD2 150206Z 13004KT 06/M06 A3027 RMK A01 T00581055  RH  044%=      5-min Rain = 0
KPD2 150207Z 13002KT 06/M06 A3027 RMK A01 T00591055  RH  044%=      5-min Rain = 0
KPD2 150208Z 12001KT 06/M06 A3027 RMK A01 T00581057  RH  043%=      5-min Rain = 0
KPD2 150209Z 10003KT 06/M06 A3027 RMK A01 T00581055  RH  044%=      5-min Rain = 0
KPD2 150210Z 11002KT 06/M06 A3027 RMK A01 T00581055  RH  044%=      5-min Rain = 0
KPD2 150211Z 12001KT 06/M06 A3027 RMK A01 T00581055  RH  044%=      5-min Rain = 0
KPD2 150212Z 14002KT 06/M06 A3027 RMK A01 T00581055  RH  044%=      5-min Rain = 0
KPD2 150213Z 13003KT 06/M05 A3027 RMK A01 T00581054  RH  044%=      5-min Rain = 0
KPD2 150214Z 12003KT 06/M06 A3027 RMK A01 T00581055  RH  044%=      5-min Rain = 0
KPD2 150215Z 12004KT 06/M06 A3027 RMK A01 T00581055  RH  044%=      5-min Rain = 0
KPD2 150216Z 12003KT 06/M06 A3027 RMK A01 T00581055  RH  044%=      5-min Rain = 0
KPD2 150217Z 13003KT 06/M06 A3027 RMK A01 T00601055  RH  044%=      5-min Rain = 0
KPD2 150218Z 13002KT 06/M06 A3027 RMK A01 T00611055  RH  043%=      5-min Rain = 0
KPD2 150219Z 13003KT 06/M06 A3027 RMK A01 T00611056  RH  043%=      5-min Rain = 0
KPD2 150220Z 14003KT 06/M06 A3027 RMK A01 T00621056  RH  043%=      5-min Rain = 0
KPD2 150221Z 13004KT 06/M06 A3027 RMK A01 T00631055  RH  042%=      5-min Rain = 0
KPD2 150222Z 12004KT 06/M06 A3027 RMK A01 T00631055  RH  042%=      5-min Rain = 0
KPD2 150223Z 13004KT 06/M06 A3027 RMK A01 T00641055  RH  042%=      5-min Rain = 0
KPD2 150224Z 14003KT 06/M06 A3027 RMK A01 T00641056  RH  042%=      5-min Rain = 0
KPD2 150225Z 13002KT 06/M06 A3027 RMK A01 T00641056  RH  042%=      5-min Rain = 0
KPD2 150226Z 14002KT 06/M06 A3027 RMK A01 T00641056  RH  042%=      5-min Rain = 0
KPD2 150227Z 14002KT 06/M06 A3027 RMK A01 T00631056  RH  042%=      5-min Rain = 0
KPD2 150228Z 15002KT 06/M06 A3027 RMK A01 T00631055  RH  042%=      5-min Rain = 0
KPD2 150229Z 14002KT 06/M06 A3027 RMK A01 T00631055  RH  042%=      5-min Rain = 0
KPD2 150230Z 13002KT 06/M06 A3027 RMK A01 T00631055  RH  043%=      5-min Rain = 0
KPD2 150231Z 14002KT 06/M06 A3027 RMK A01 T00631055  RH  042%=      5-min Rain = 0
KPD2 150232Z 15002KT 06/M06 A3027 RMK A01 T00631055  RH  042%=      5-min Rain = 0
KPD2 150233Z 15002KT 06/M06 A3027 RMK A01 T00631056  RH  042%=      5-min Rain = 0
KPD2 150234Z 16002KT 06/M06 A3027 RMK A01 T00621055  RH  043%=      5-min Rain = 0
KPD2 150235Z 15003KT 06/M06 A3027 RMK A01 T00621056  RH  043%=      5-min Rain = 0
KPD2 150236Z 13003KT 06/M06 A3027 RMK A01 T00621056  RH  043%=      5-min Rain = 0
KPD2 150237Z 14002KT 06/M06 A3027 RMK A01 T00621056  RH  043%=      5-min Rain = 0
KPD2 150238Z 14002KT 06/M06 A3027 RMK A01 T00611057  RH  043%=      5-min Rain = 0
KPD2 150239Z 15002KT 06/M06 A3027 RMK A01 T00601057  RH  043%=      5-min Rain = 0
KPD2 150240Z 15003KT 06/M06 A3027 RMK A01 T00601057  RH  043%=      5-min Rain = 0
KPD2 150241Z 14003KT 06/M06 A3027 RMK A01 T00601057  RH  043%=      5-min Rain = 0
KPD2 150242Z 13003KT 06/M06 A3027 RMK A01 T00591057  RH  043%=      5-min Rain = 0
KPD2 150243Z 12002KT 06/M06 A3027 RMK A01 T00591056  RH  043%=      5-min Rain = 0
KPD2 150244Z 12002KT 06/M06 A3027 RMK A01 T00591056  RH  044%=      5-min Rain = 0
KPD2 150245Z 12003KT 06/M06 A3027 RMK A01 T00591056  RH  043%=      5-min Rain = 0
KPD2 150246Z 12002KT 06/M06 A3027 RMK A01 T00591057  RH  043%=      5-min Rain = 0
KPD2 150247Z 13002KT 06/M06 A3027 RMK A01 T00591058  RH  043%=      5-min Rain = 0
KPD2 150248Z 13002KT 06/M06 A3027 RMK A01 T00581057  RH  043%=      5-min Rain = 0
KPD2 150249Z 14001KT 06/M06 A3027 RMK A01 T00581056  RH  044%=      5-min Rain = 0
KPD2 150250Z 16002KT 06/M06 A3027 RMK A01 T00581057  RH  044%=      5-min Rain = 0
KPD2 150251Z 15002KT 06/M06 A3027 RMK A01 T00571057  RH  044%=      5-min Rain = 0
KPD2 150252Z 16002KT 06/M06 A3027 RMK A01 T00571057  RH  044%=      5-min Rain = 0
KPD2 150253Z 17002KT 06/M06 A3027 RMK A01 T00561058  RH  044%=      5-min Rain = 0
KPD2 150254Z 16002KT 06/M06 A3027 RMK A01 T00551057  RH  044%=      5-min Rain = 0
KPD2 150255Z 15002KT 06/M06 A3027 RMK A01 T00551058  RH  044%=      5-min Rain = 0
KPD2 150256Z 16003KT 05/M06 A3027 RMK A01 T00541058  RH  044%=      5-min Rain = 0
KPD2 150257Z 16002KT 05/M06 A3027 RMK A01 T00531058  RH  045%=      5-min Rain = 0
KPD2 150258Z 16003KT 05/M06 A3027 RMK A01 T00521058  RH  045%=      5-min Rain = 0
KPD2 150259Z 14002KT 05/M06 A3027 RMK A01 T00521058  RH  045%=      5-min Rain = 0
KPD2 150300Z 14001KT 05/M06 A3027 RMK A01 T00531057  RH  045%=      5-min Rain = 0
KPD2 150301Z 14001KT 05/M06 A3027 RMK A01 T00521058  RH  045%=      5-min Rain = 0
KPD2 150302Z 11001KT 05/M06 A3027 RMK A01 T00531057  RH  045%=      5-min Rain = 0
KPD2 150303Z 09002KT 06/M06 A3026 RMK A01 T00551056  RH  045%=      5-min Rain = 0
KPD2 150304Z 12002KT 06/M06 A3026 RMK A01 T00561057  RH  044%=      5-min Rain = 0
KPD2 150305Z 12002KT 06/M06 A3027 RMK A01 T00561059  RH  043%=      5-min Rain = 0
KPD2 150306Z 12002KT 06/M06 A3027 RMK A01 T00551060  RH  043%=      5-min Rain = 0
KPD2 150307Z 12002KT 05/M06 A3026 RMK A01 T00541059  RH  044%=      5-min Rain = 0
KPD2 150308Z 10002KT 05/M06 A3026 RMK A01 T00541059  RH  044%=      5-min Rain = 0
KPD2 150309Z 09002KT 06/M06 A3026 RMK A01 T00561058  RH  044%=      5-min Rain = 0
KPD2 150310Z 10002KT 06/M06 A3027 RMK A01 T00571059  RH  043%=      5-min Rain = 0
KPD2 150311Z 08002KT 06/M06 A3027 RMK A01 T00581059  RH  043%=      5-min Rain = 0
KPD2 150312Z 07002KT 06/M06 A3026 RMK A01 T00581058  RH  043%=      5-min Rain = 0
KPD2 150313Z 05002KT 06/M06 A3026 RMK A01 T00591057  RH  043%=      5-min Rain = 0
KPD2 150314Z 04000KT 06/M06 A3026 RMK A01 T00571060  RH  043%=      5-min Rain = 0
KPD2 150315Z 07000KT 05/M06 A3026 RMK A01 T00531061  RH  044%=      5-min Rain = 0
KPD2 150316Z 07000KT 05/M06 A3026 RMK A01 T00521059  RH  044%=      5-min Rain = 0
KPD2 150317Z 07000KT 05/M06 A3026 RMK A01 T00541057  RH  045%=      5-min Rain = 0
KPD2 150318Z 14001KT 06/M06 A3026 RMK A01 T00551058  RH  044%=      5-min Rain = 0
KPD2 150319Z 18001KT 06/M06 A3026 RMK A01 T00551059  RH  044%=      5-min Rain = 0
KPD2 150320Z 18001KT 05/M06 A3026 RMK A01 T00541060  RH  043%=      5-min Rain = 0
KPD2 150321Z 15001KT 05/M06 A3026 RMK A01 T00531060  RH  044%=      5-min Rain = 0
KPD2 150322Z 14002KT 05/M06 A3026 RMK A01 T00531059  RH  044%=      5-min Rain = 0
KPD2 150323Z 16002KT 05/M06 A3026 RMK A01 T00521060  RH  044%=      5-min Rain = 0
KPD2 150324Z 16002KT 05/M06 A3026 RMK A01 T00501060  RH  045%=      5-min Rain = 0
KPD2 150325Z 13002KT 05/M06 A3026 RMK A01 T00491060  RH  045%=      5-min Rain = 0
KPD2 150326Z 15002KT 05/M06 A3026 RMK A01 T00481060  RH  046%=      5-min Rain = 0
KPD2 150327Z 16001KT 05/M06 A3026 RMK A01 T00471060  RH  046%=      5-min Rain = 0
KPD2 150328Z 16002KT 05/M06 A3026 RMK A01 T00471060  RH  046%=      5-min Rain = 0
KPD2 150329Z 16002KT 05/M06 A3026 RMK A01 T00461059  RH  046%=      5-min Rain = 0
KPD2 150330Z 15002KT 05/M06 A3026 RMK A01 T00461060  RH  046%=      5-min Rain = 0
KPD2 150331Z 15002KT 04/M06 A3026 RMK A01 T00441062  RH  046%=      5-min Rain = 0
KPD2 150332Z 14002KT 04/M06 A3026 RMK A01 T00431061  RH  046%=      5-min Rain = 0
KPD2 150333Z 14002KT 04/M06 A3026 RMK A01 T00421062  RH  047%=      5-min Rain = 0
KPD2 150334Z 16002KT 04/M06 A3026 RMK A01 T00411063  RH  047%=      5-min Rain = 0
KPD2 150335Z 16002KT 04/M06 A3026 RMK A01 T00401064  RH  047%=      5-min Rain = 0
KPD2 150336Z 21000KT 04/M07 A3026 RMK A01 T00351069  RH  046%=      5-min Rain = 0
KPD2 150337Z 00000KT 03/M07 A3026 RMK A01 T00321068  RH  048%=      5-min Rain = 0
KPD2 150338Z 00000KT 03/M07 A3025 RMK A01 T00301067  RH  049%=      5-min Rain = 0
KPD2 150339Z 00000KT 03/M07 A3026 RMK A01 T00291067  RH  049%=      5-min Rain = 0
KPD2 150340Z 26001KT 03/M07 A3026 RMK A01 T00261070  RH  049%=      5-min Rain = 0
KPD2 150341Z 00000KT 03/M07 A3025 RMK A01 T00261066  RH  051%=      5-min Rain = 0
KPD2 150342Z 34000KT 03/M06 A3025 RMK A01 T00271064  RH  051%=      5-min Rain = 0
KPD2 150343Z 29002KT 03/M07 A3026 RMK A01 T00271065  RH  051%=      5-min Rain = 0
KPD2 150344Z 25001KT 03/M07 A3026 RMK A01 T00261068  RH  050%=      5-min Rain = 0
KPD2 150345Z 00000KT 03/M06 A3025 RMK A01 T00261063  RH  052%=      5-min Rain = 0
KPD2 150346Z 00000KT 03/M06 A3025 RMK A01 T00291061  RH  051%=      5-min Rain = 0
KPD2 150347Z 00000KT 03/M06 A3026 RMK A01 T00301064  RH  050%=      5-min Rain = 0
KPD2 150348Z 00000KT 03/M07 A3026 RMK A01 T00291066  RH  050%=      5-min Rain = 0
KPD2 150349Z 03001KT 03/M06 A3025 RMK A01 T00301064  RH  050%=      5-min Rain = 0
KPD2 150350Z 23001KT 03/M07 A3025 RMK A01 T00311065  RH  049%=      5-min Rain = 0
KPD2 150351Z 21000KT 03/M07 A3025 RMK A01 T00301066  RH  050%=      5-min Rain = 0
KPD2 150352Z 24001KT 03/M07 A3025 RMK A01 T00301065  RH  050%=      5-min Rain = 0
KPD2 150353Z 24001KT 03/M07 A3025 RMK A01 T00281070  RH  049%=      5-min Rain = 0
KPD2 150354Z 26000KT 03/M07 A3026 RMK A01 T00251072  RH  049%=      5-min Rain = 0
KPD2 150355Z 30001KT 02/M07 A3026 RMK A01 T00231071  RH  050%=      5-min Rain = 0
KPD2 150356Z 04000KT 02/M07 A3025 RMK A01 T00221069  RH  051%=      5-min Rain = 0
KPD2 150357Z 04001KT 02/M07 A3025 RMK A01 T00211070  RH  051%=      5-min Rain = 0
KPD2 150358Z 05000KT 02/M07 A3026 RMK A01 T00211068  RH  052%=      5-min Rain = 0
KPD2 150359Z 15002KT 02/M07 A3026 RMK A01 T00221066  RH  052%=      5-min Rain = 0
KPD2 150400Z 15000KT 02/M07 A3026 RMK A01 T00241066  RH  051%=      5-min Rain = 0
KPD2 150401Z 11000KT 02/M07 A3026 RMK A01 T00241070  RH  050%=      5-min Rain = 0
KPD2 150402Z 00000KT 02/M07 A3026 RMK A01 T00221072  RH  050%=      5-min Rain = 0
KPD2 150403Z 24001KT 02/M07 A3026 RMK A01 T00191071  RH  051%=      5-min Rain = 0
KPD2 150404Z 25001KT 02/M07 A3026 RMK A01 T00181070  RH  052%=      5-min Rain = 0
KPD2 150405Z 00000KT 02/M07 A3026 RMK A01 T00181069  RH  053%=      5-min Rain = 0
KPD2 150406Z 26001KT 02/M07 A3026 RMK A01 T00171070  RH  053%=      5-min Rain = 0
KPD2 150407Z 26001KT 02/M07 A3026 RMK A01 T00161070  RH  053%=      5-min Rain = 0
KPD2 150408Z 00000KT 02/M07 A3026 RMK A01 T00161069  RH  053%=      5-min Rain = 0
KPD2 150409Z 29000KT 02/M07 A3026 RMK A01 T00151070  RH  053%=      5-min Rain = 0
KPD2 150410Z 29001KT 02/M07 A3026 RMK A01 T00151070  RH  053%=      5-min Rain = 0
KPD2 150411Z 00000KT 01/M07 A3026 RMK A01 T00141071  RH  053%=      5-min Rain = 0
KPD2 150412Z 27001KT 01/M07 A3026 RMK A01 T00131072  RH  053%=      5-min Rain = 0
KPD2 150413Z 26001KT 01/M07 A3026 RMK A01 T00121072  RH  054%=      5-min Rain = 0
KPD2 150414Z 28001KT 01/M07 A3025 RMK A01 T00111072  RH  054%=      5-min Rain = 0
KPD2 150415Z 27001KT 01/M07 A3025 RMK A01 T00111073  RH  054%=      5-min Rain = 0
KPD2 150416Z 27001KT 01/M07 A3025 RMK A01 T00091073  RH  054%=      5-min Rain = 0
KPD2 150417Z 25001KT 01/M07 A3025 RMK A01 T00081073  RH  055%=      5-min Rain = 0
KPD2 150418Z 25000KT 01/M07 A3025 RMK A01 T00091071  RH  055%=      5-min Rain = 0
KPD2 150419Z 25002KT 01/M07 A3025 RMK A01 T00101070  RH  055%=      5-min Rain = 0
KPD2 150420Z 24002KT 01/M07 A3025 RMK A01 T00101070  RH  055%=      5-min Rain = 0
KPD2 150421Z 26001KT 01/M07 A3025 RMK A01 T00111070  RH  055%=      5-min Rain = 0
KPD2 150422Z 27003KT 01/M07 A3025 RMK A01 T00121069  RH  055%=      5-min Rain = 0
KPD2 150423Z 29001KT 01/M07 A3025 RMK A01 T00121070  RH  054%=      5-min Rain = 0
KPD2 150424Z 30001KT 01/M07 A3025 RMK A01 T00121070  RH  054%=      5-min Rain = 0
KPD2 150425Z 28001KT 01/M07 A3025 RMK A01 T00121070  RH  054%=      5-min Rain = 0
KPD2 150426Z 32002KT 01/M07 A3025 RMK A01 T00121071  RH  054%=      5-min Rain = 0
KPD2 150427Z 34001KT 01/M07 A3025 RMK A01 T00111071  RH  054%=      5-min Rain = 0
KPD2 150428Z 34001KT 01/M07 A3025 RMK A01 T00111071  RH  054%=      5-min Rain = 0
KPD2 150429Z 26002KT 01/M07 A3025 RMK A01 T00111071  RH  054%=      5-min Rain = 0
KPD2 150430Z 28002KT 01/M07 A3025 RMK A01 T00111071  RH  054%=      5-min Rain = 0
KPD2 150431Z 28001KT 01/M07 A3025 RMK A01 T00101072  RH  054%=      5-min Rain = 0
KPD2 150432Z 27001KT 01/M07 A3025 RMK A01 T00091072  RH  055%=      5-min Rain = 0
KPD2 150433Z 26001KT 01/M07 A3025 RMK A01 T00091072  RH  055%=      5-min Rain = 0
KPD2 150434Z 26002KT 01/M07 A3025 RMK A01 T00081072  RH  055%=      5-min Rain = 0
KPD2 150435Z 26001KT 01/M07 A3025 RMK A01 T00081072  RH  055%=      5-min Rain = 0
KPD2 150436Z 01001KT 01/M07 A3025 RMK A01 T00081072  RH  055%=      5-min Rain = 0
KPD2 150437Z 01001KT 01/M07 A3025 RMK A01 T00081072  RH  055%=      5-min Rain = 0
KPD2 150438Z 34001KT 01/M07 A3025 RMK A01 T00081072  RH  055%=      5-min Rain = 0
KPD2 150439Z 33002KT 01/M07 A3025 RMK A01 T00091071  RH  055%=      5-min Rain = 0
KPD2 150440Z 36002KT 01/M07 A3025 RMK A01 T00101071  RH  055%=      5-min Rain = 0
KPD2 150441Z 36003KT 01/M07 A3025 RMK A01 T00101072  RH  054%=      5-min Rain = 0
KPD2 150442Z 33001KT 01/M07 A3025 RMK A01 T00091073  RH  054%=      5-min Rain = 0
KPD2 150443Z 27001KT 01/M07 A3025 RMK A01 T00081073  RH  054%=      5-min Rain = 0
KPD2 150444Z 26000KT 01/M07 A3025 RMK A01 T00071074  RH  055%=      5-min Rain = 0
KPD2 150445Z 04000KT 01/M07 A3025 RMK A01 T00071074  RH  055%=      5-min Rain = 0
KPD2 150446Z 04002KT 01/M07 A3025 RMK A01 T00071074  RH  055%=      5-min Rain = 0
KPD2 150447Z 04001KT 01/M07 A3025 RMK A01 T00061073  RH  055%=      5-min Rain = 0
KPD2 150448Z 13000KT 01/M07 A3025 RMK A01 T00061074  RH  055%=      5-min Rain = 0
KPD2 150449Z 00000KT 01/M08 A3025 RMK A01 T00051075  RH  055%=      5-min Rain = 0
KPD2 150450Z 19000KT 01/M07 A3025 RMK A01 T00051074  RH  055%=      5-min Rain = 0
KPD2 150451Z 00000KT 01/M07 A3025 RMK A01 T00051074  RH  055%=      5-min Rain = 0
KPD2 150452Z 14001KT 00/M08 A3025 RMK A01 T00041075  RH  055%=      5-min Rain = 0
KPD2 150453Z 15002KT 00/M08 A3025 RMK A01 T00021077  RH  055%=      5-min Rain = 0
KPD2 150454Z 18002KT 00/08 A3025 RMK A01 T00-00-79  RH  055%=      5-min Rain = 0
KPD2 150455Z 16001KT M00/M08 A3025 RMK A01 T10021079  RH  056%=      5-min Rain = 0
KPD2 150456Z 16002KT M00/M08 A3025 RMK A01 T10021078  RH  056%=      5-min Rain = 0
KPD2 150457Z 15002KT M00/M08 A3025 RMK A01 T10021078  RH  057%=      5-min Rain = 0
KPD2 150458Z 17003KT M00/M08 A3025 RMK A01 T10031079  RH  057%=      5-min Rain = 0
KPD2 150459Z 13002KT M00/M08 A3025 RMK A01 T10031077  RH  057%=      5-min Rain = 0
KPD2 150500Z 14003KT M00/M08 A3025 RMK A01 T10031077  RH  058%=      5-min Rain = 0
KPD2 150501Z 20000KT M00/M08 A3025 RMK A01 T10031078  RH  057%=      5-min Rain = 0
KPD2 150502Z 21000KT M00/M08 A3025 RMK A01 T10031079  RH  057%=      5-min Rain = 0
KPD2 150503Z 21001KT M00/M08 A3025 RMK A01 T10041079  RH  057%=      5-min Rain = 0
KPD2 150504Z 26001KT M00/M08 A3025 RMK A01 T10041077  RH  058%=      5-min Rain = 0
KPD2 150505Z 29002KT M01/M08 A3025 RMK A01 T10051079  RH  057%=      5-min Rain = 0
KPD2 150506Z 30002KT M01/M08 A3025 RMK A01 T10091084  RH  057%=      5-min Rain = 0
KPD2 150507Z 05002KT M01/M09 A3025 RMK A01 T10121085  RH  058%=      5-min Rain = 0
KPD2 150508Z 06003KT M01/M08 A3024 RMK A01 T10131081  RH  060%=      5-min Rain = 0
KPD2 150509Z 05002KT M01/M08 A3024 RMK A01 T10101077  RH  060%=      5-min Rain = 0
KPD2 150510Z 34000KT M01/M08 A3024 RMK A01 T10101081  RH  059%=      5-min Rain = 0
KPD2 150511Z 03001KT M01/M08 A3024 RMK A01 T10111081  RH  059%=      5-min Rain = 0
KPD2 150512Z 09002KT M01/M07 A3024 RMK A01 T10061073  RH  060%=      5-min Rain = 0
KPD2 150513Z 10003KT M00/M07 A3024 RMK A01 T10021073  RH  059%=      5-min Rain = 0
KPD2 150514Z 10003KT M00/M07 A3024 RMK A01 T10011074  RH  058%=      5-min Rain = 0
KPD2 150515Z 10003KT 00/M07 A3024 RMK A01 T00021072  RH  057%=      5-min Rain = 0
KPD2 150516Z 12004KT 01/M07 A3024 RMK A01 T00051073  RH  056%=      5-min Rain = 0
KPD2 150517Z 11004KT 01/M07 A3024 RMK A01 T00061073  RH  055%=      5-min Rain = 0
KPD2 150518Z 10003KT 01/M07 A3024 RMK A01 T00091072  RH  055%=      5-min Rain = 0
KPD2 150519Z 11003KT 01/M07 A3024 RMK A01 T00121071  RH  054%=      5-min Rain = 0
KPD2 150520Z 25002KT 01/M07 A3024 RMK A01 T00141074  RH  052%=      5-min Rain = 0
KPD2 150521Z 25002KT 01/M08 A3024 RMK A01 T00101080  RH  051%=      5-min Rain = 0
KPD2 150522Z 24001KT 01/M08 A3024 RMK A01 T00071082  RH  051%=      5-min Rain = 0
KPD2 150523Z 24000KT 00/M08 A3024 RMK A01 T00041082  RH  052%=      5-min Rain = 0
KPD2 150524Z 16001KT 00/M08 A3024 RMK A01 T00021082  RH  053%=      5-min Rain = 0
KPD2 150525Z 14002KT 00/M08 A3024 RMK A01 T00011081  RH  054%=      5-min Rain = 0
KPD2 150526Z 03001KT 00/M08 A3024 RMK A01 T00021079  RH  054%=      5-min Rain = 0
KPD2 150527Z 01002KT M00/M08 A3023 RMK A01 T10011084  RH  054%=      5-min Rain = 0
KPD2 150528Z 03001KT M01/M09 A3023 RMK A01 T10051086  RH  054%=      5-min Rain = 0
KPD2 150529Z 13001KT M01/M08 A3024 RMK A01 T10061084  RH  056%=      5-min Rain = 0
KPD2 150530Z 16002KT M01/M08 A3023 RMK A01 T10071082  RH  057%=      5-min Rain = 0
KPD2 150531Z 11001KT M01/M08 A3023 RMK A01 T10051078  RH  058%=      5-min Rain = 0
KPD2 150532Z 33002KT M00/M08 A3023 RMK A01 T10021078  RH  057%=      5-min Rain = 0
KPD2 150533Z 33001KT M00/M08 A3023 RMK A01 T10021079  RH  056%=      5-min Rain = 0
KPD2 150534Z 36001KT 01/M07 A3023 RMK A01 T00051072  RH  056%=      5-min Rain = 0
KPD2 150535Z 05000KT 01/M07 A3023 RMK A01 T00101072  RH  054%=      5-min Rain = 0
KPD2 150536Z 04000KT 01/M07 A3023 RMK A01 T00131073  RH  053%=      5-min Rain = 0
KPD2 150537Z 00000KT 01/M08 A3023 RMK A01 T00141076  RH  051%=      5-min Rain = 0
KPD2 150538Z 28001KT 01/M08 A3023 RMK A01 T00131078  RH  051%=      5-min Rain = 0
KPD2 150539Z 28000KT 01/M08 A3023 RMK A01 T00111080  RH  051%=      5-min Rain = 0
KPD2 150540Z 26001KT 01/M08 A3023 RMK A01 T00091080  RH  052%=      5-min Rain = 0
KPD2 150541Z 34002KT 01/M08 A3023 RMK A01 T00051082  RH  052%=      5-min Rain = 0
KPD2 150542Z 09001KT 00/M08 A3023 RMK A01 T00031082  RH  053%=      5-min Rain = 0
KPD2 150543Z 23001KT 00/M08 A3023 RMK A01 T00021082  RH  053%=      5-min Rain = 0
KPD2 150544Z 24001KT M00/M09 A3023 RMK A01 T10011085  RH  053%=      5-min Rain = 0
KPD2 150545Z 00000KT M00/M08 A3023 RMK A01 T10021082  RH  055%=      5-min Rain = 0
KPD2 150546Z 27000KT 00/M08 A3023 RMK A01 T00011079  RH  055%=      5-min Rain = 0
KPD2 150547Z 29001KT 00/M08 A3023 RMK A01 T00021080  RH  054%=      5-min Rain = 0
KPD2 150548Z 29000KT 00/M08 A3023 RMK A01 T00011081  RH  054%=      5-min Rain = 0
KPD2 150549Z 26001KT 00/M08 A3023 RMK A01 T00011080  RH  054%=      5-min Rain = 0
KPD2 150550Z 04001KT 00/M08 A3023 RMK A01 T00031078  RH  054%=      5-min Rain = 0
KPD2 150551Z 04001KT 01/M08 A3023 RMK A01 T00101075  RH  053%=      5-min Rain = 0
KPD2 150552Z 04001KT 02/M07 A3023 RMK A01 T00211072  RH  050%=      5-min Rain = 0
KPD2 150553Z 23003KT 03/M07 A3023 RMK A01 T00271074  RH  047%=      5-min Rain = 0
KPD2 150554Z 20003KT 03/M08 A3023 RMK A01 T00271077  RH  046%=      5-min Rain = 0
KPD2 150555Z 21000KT 03/M08 A3023 RMK A01 T00251078  RH  046%=      5-min Rain = 0
KPD2 150556Z 26002KT 03/M08 A3023 RMK A01 T00251079  RH  046%=      5-min Rain = 0
KPD2 150557Z 31002KT 02/M08 A3023 RMK A01 T00221081  RH  046%=      5-min Rain = 0
KPD2 150558Z 03002KT 02/M08 A3022 RMK A01 T00211081  RH  047%=      5-min Rain = 0
KPD2 150559Z 00002KT 02/M08 A3022 RMK A01 T00221079  RH  047%=      5-min Rain = 0

Page generated in 0.1497 seconds.